<?xml version="1.0" encoding="UTF-8" standalone="no" ?>
<gpx xmlns="http://www.topografix.com/GPX/1/1" xmlns:xsi="http://www.w3.org/2001/XMLSchema-instance" xsi:schemaLocation="http://www.topografix.com/GPX/1/1 http://www.topografix.com/GPX/1/1/gpx.xsd" version="1.1" creator="VisuGPX - https://www.visugpx.com">
  <metadata>
    <name>suuntoapp-SkiTouring-2021-03-11T08-06-41Z</name>
  </metadata>
  <trk>
    <name><![CDATA[suuntoapp-SkiTouring-2021-03-11T08-06-41Z]]></name>
    <trkseg>
      <trkpt lat="45.01091" lon="6.46569">
        <ele>1634</ele>
        <time>2021-03-11T08:06:42Z</time>
      </trkpt>
      <trkpt lat="45.01091" lon="6.46566">
        <ele>1634</ele>
        <time>2021-03-11T08:06:46Z</time>
      </trkpt>
      <trkpt lat="45.01093" lon="6.46555">
        <ele>1634</ele>
        <time>2021-03-11T08:07:54Z</time>
      </trkpt>
      <trkpt lat="45.0109" lon="6.46544">
        <ele>1633</ele>
        <time>2021-03-11T08:08:04Z</time>
      </trkpt>
      <trkpt lat="45.01086" lon="6.46536">
        <ele>1633</ele>
        <time>2021-03-11T08:08:11Z</time>
      </trkpt>
      <trkpt lat="45.01081" lon="6.46528">
        <ele>1633</ele>
        <time>2021-03-11T08:08:19Z</time>
      </trkpt>
      <trkpt lat="45.01077" lon="6.46519">
        <ele>1634</ele>
        <time>2021-03-11T08:08:26Z</time>
      </trkpt>
      <trkpt lat="45.01071" lon="6.46512">
        <ele>1634</ele>
        <time>2021-03-11T08:08:34Z</time>
      </trkpt>
      <trkpt lat="45.01066" lon="6.46505">
        <ele>1634</ele>
        <time>2021-03-11T08:08:40Z</time>
      </trkpt>
      <trkpt lat="45.01061" lon="6.46498">
        <ele>1635</ele>
        <time>2021-03-11T08:08:47Z</time>
      </trkpt>
      <trkpt lat="45.01058" lon="6.46494">
        <ele>1635</ele>
        <time>2021-03-11T08:08:50Z</time>
      </trkpt>
      <trkpt lat="45.01053" lon="6.46488">
        <ele>1635</ele>
        <time>2021-03-11T08:08:55Z</time>
      </trkpt>
      <trkpt lat="45.01049" lon="6.46481">
        <ele>1635</ele>
        <time>2021-03-11T08:09:01Z</time>
      </trkpt>
      <trkpt lat="45.01047" lon="6.46478">
        <ele>1635</ele>
        <time>2021-03-11T08:09:04Z</time>
      </trkpt>
      <trkpt lat="45.01044" lon="6.46471">
        <ele>1635</ele>
        <time>2021-03-11T08:09:10Z</time>
      </trkpt>
      <trkpt lat="45.01042" lon="6.46466">
        <ele>1635</ele>
        <time>2021-03-11T08:09:14Z</time>
      </trkpt>
      <trkpt lat="45.0104" lon="6.46463">
        <ele>1635</ele>
        <time>2021-03-11T08:09:17Z</time>
      </trkpt>
      <trkpt lat="45.01037" lon="6.46459">
        <ele>1635</ele>
        <time>2021-03-11T08:09:21Z</time>
      </trkpt>
      <trkpt lat="45.01034" lon="6.46455">
        <ele>1636</ele>
        <time>2021-03-11T08:09:26Z</time>
      </trkpt>
      <trkpt lat="45.01032" lon="6.46454">
        <ele>1636</ele>
        <time>2021-03-11T08:09:29Z</time>
      </trkpt>
      <trkpt lat="45.0103" lon="6.46451">
        <ele>1636</ele>
        <time>2021-03-11T08:09:32Z</time>
      </trkpt>
      <trkpt lat="45.01028" lon="6.46449">
        <ele>1637</ele>
        <time>2021-03-11T08:09:36Z</time>
      </trkpt>
      <trkpt lat="45.01026" lon="6.46448">
        <ele>1637</ele>
        <time>2021-03-11T08:09:39Z</time>
      </trkpt>
      <trkpt lat="45.01024" lon="6.46446">
        <ele>1637</ele>
        <time>2021-03-11T08:09:41Z</time>
      </trkpt>
      <trkpt lat="45.01023" lon="6.46444">
        <ele>1638</ele>
        <time>2021-03-11T08:09:44Z</time>
      </trkpt>
      <trkpt lat="45.0102" lon="6.46442">
        <ele>1638</ele>
        <time>2021-03-11T08:09:48Z</time>
      </trkpt>
      <trkpt lat="45.01018" lon="6.4644">
        <ele>1638</ele>
        <time>2021-03-11T08:09:51Z</time>
      </trkpt>
      <trkpt lat="45.01016" lon="6.46438">
        <ele>1640</ele>
        <time>2021-03-11T08:09:54Z</time>
      </trkpt>
      <trkpt lat="45.01015" lon="6.46436">
        <ele>1640</ele>
        <time>2021-03-11T08:09:57Z</time>
      </trkpt>
      <trkpt lat="45.01013" lon="6.46434">
        <ele>1640</ele>
        <time>2021-03-11T08:10:00Z</time>
      </trkpt>
      <trkpt lat="45.01011" lon="6.46432">
        <ele>1641</ele>
        <time>2021-03-11T08:10:04Z</time>
      </trkpt>
      <trkpt lat="45.01009" lon="6.46429">
        <ele>1641</ele>
        <time>2021-03-11T08:10:07Z</time>
      </trkpt>
      <trkpt lat="45.01007" lon="6.46427">
        <ele>1641</ele>
        <time>2021-03-11T08:10:10Z</time>
      </trkpt>
      <trkpt lat="45.01005" lon="6.46425">
        <ele>1641</ele>
        <time>2021-03-11T08:10:14Z</time>
      </trkpt>
      <trkpt lat="45.01002" lon="6.46423">
        <ele>1641</ele>
        <time>2021-03-11T08:10:18Z</time>
      </trkpt>
      <trkpt lat="45.01" lon="6.46421">
        <ele>1641</ele>
        <time>2021-03-11T08:10:22Z</time>
      </trkpt>
      <trkpt lat="45.00998" lon="6.46418">
        <ele>1642</ele>
        <time>2021-03-11T08:10:26Z</time>
      </trkpt>
      <trkpt lat="45.00997" lon="6.46415">
        <ele>1642</ele>
        <time>2021-03-11T08:10:30Z</time>
      </trkpt>
      <trkpt lat="45.00995" lon="6.46413">
        <ele>1644</ele>
        <time>2021-03-11T08:10:34Z</time>
      </trkpt>
      <trkpt lat="45.00993" lon="6.4641">
        <ele>1644</ele>
        <time>2021-03-11T08:10:38Z</time>
      </trkpt>
      <trkpt lat="45.00991" lon="6.46408">
        <ele>1644</ele>
        <time>2021-03-11T08:10:42Z</time>
      </trkpt>
      <trkpt lat="45.00989" lon="6.46405">
        <ele>1645</ele>
        <time>2021-03-11T08:10:46Z</time>
      </trkpt>
      <trkpt lat="45.00987" lon="6.46403">
        <ele>1645</ele>
        <time>2021-03-11T08:10:50Z</time>
      </trkpt>
      <trkpt lat="45.00985" lon="6.464">
        <ele>1646</ele>
        <time>2021-03-11T08:10:54Z</time>
      </trkpt>
      <trkpt lat="45.00982" lon="6.46399">
        <ele>1646</ele>
        <time>2021-03-11T08:10:58Z</time>
      </trkpt>
      <trkpt lat="45.0098" lon="6.46397">
        <ele>1646</ele>
        <time>2021-03-11T08:11:02Z</time>
      </trkpt>
      <trkpt lat="45.00978" lon="6.46394">
        <ele>1647</ele>
        <time>2021-03-11T08:11:07Z</time>
      </trkpt>
      <trkpt lat="45.00976" lon="6.46392">
        <ele>1647</ele>
        <time>2021-03-11T08:11:11Z</time>
      </trkpt>
      <trkpt lat="45.00974" lon="6.46389">
        <ele>1649</ele>
        <time>2021-03-11T08:11:16Z</time>
      </trkpt>
      <trkpt lat="45.00972" lon="6.46387">
        <ele>1649</ele>
        <time>2021-03-11T08:11:20Z</time>
      </trkpt>
      <trkpt lat="45.00971" lon="6.46384">
        <ele>1651</ele>
        <time>2021-03-11T08:11:24Z</time>
      </trkpt>
      <trkpt lat="45.0097" lon="6.4638">
        <ele>1651</ele>
        <time>2021-03-11T08:11:29Z</time>
      </trkpt>
      <trkpt lat="45.0097" lon="6.46376">
        <ele>1652</ele>
        <time>2021-03-11T08:11:34Z</time>
      </trkpt>
      <trkpt lat="45.00969" lon="6.46372">
        <ele>1652</ele>
        <time>2021-03-11T08:11:38Z</time>
      </trkpt>
      <trkpt lat="45.00968" lon="6.46367">
        <ele>1653</ele>
        <time>2021-03-11T08:11:45Z</time>
      </trkpt>
      <trkpt lat="45.00967" lon="6.46361">
        <ele>1653</ele>
        <time>2021-03-11T08:11:53Z</time>
      </trkpt>
      <trkpt lat="45.00965" lon="6.46356">
        <ele>1654</ele>
        <time>2021-03-11T08:11:59Z</time>
      </trkpt>
      <trkpt lat="45.00964" lon="6.46349">
        <ele>1655</ele>
        <time>2021-03-11T08:12:06Z</time>
      </trkpt>
      <trkpt lat="45.00963" lon="6.46344">
        <ele>1657</ele>
        <time>2021-03-11T08:12:14Z</time>
      </trkpt>
      <trkpt lat="45.00959" lon="6.4634">
        <ele>1659</ele>
        <time>2021-03-11T08:12:25Z</time>
      </trkpt>
      <trkpt lat="45.00954" lon="6.46341">
        <ele>1661</ele>
        <time>2021-03-11T08:12:36Z</time>
      </trkpt>
      <trkpt lat="45.00949" lon="6.46341">
        <ele>1662</ele>
        <time>2021-03-11T08:12:44Z</time>
      </trkpt>
      <trkpt lat="45.00944" lon="6.4634">
        <ele>1663</ele>
        <time>2021-03-11T08:12:54Z</time>
      </trkpt>
      <trkpt lat="45.00939" lon="6.46341">
        <ele>1663</ele>
        <time>2021-03-11T08:13:00Z</time>
      </trkpt>
      <trkpt lat="45.00933" lon="6.46343">
        <ele>1665</ele>
        <time>2021-03-11T08:13:19Z</time>
      </trkpt>
      <trkpt lat="45.00931" lon="6.46348">
        <ele>1663</ele>
        <time>2021-03-11T08:14:17Z</time>
      </trkpt>
      <trkpt lat="45.00924" lon="6.46357">
        <ele>1664</ele>
        <time>2021-03-11T08:15:34Z</time>
      </trkpt>
      <trkpt lat="45.00915" lon="6.46361">
        <ele>1666</ele>
        <time>2021-03-11T08:15:47Z</time>
      </trkpt>
      <trkpt lat="45.00909" lon="6.46359">
        <ele>1668</ele>
        <time>2021-03-11T08:16:00Z</time>
      </trkpt>
      <trkpt lat="45.00905" lon="6.4635">
        <ele>1670</ele>
        <time>2021-03-11T08:16:11Z</time>
      </trkpt>
      <trkpt lat="45.00904" lon="6.46342">
        <ele>1672</ele>
        <time>2021-03-11T08:16:20Z</time>
      </trkpt>
      <trkpt lat="45.00904" lon="6.46332">
        <ele>1673</ele>
        <time>2021-03-11T08:16:32Z</time>
      </trkpt>
      <trkpt lat="45.00908" lon="6.46322">
        <ele>1675</ele>
        <time>2021-03-11T08:16:47Z</time>
      </trkpt>
      <trkpt lat="45.009" lon="6.46323">
        <ele>1677</ele>
        <time>2021-03-11T08:17:04Z</time>
      </trkpt>
      <trkpt lat="45.00895" lon="6.46329">
        <ele>1679</ele>
        <time>2021-03-11T08:17:16Z</time>
      </trkpt>
      <trkpt lat="45.0089" lon="6.46331">
        <ele>1679</ele>
        <time>2021-03-11T08:17:23Z</time>
      </trkpt>
      <trkpt lat="45.00884" lon="6.46333">
        <ele>1679</ele>
        <time>2021-03-11T08:17:30Z</time>
      </trkpt>
      <trkpt lat="45.00879" lon="6.46332">
        <ele>1681</ele>
        <time>2021-03-11T08:17:37Z</time>
      </trkpt>
      <trkpt lat="45.00876" lon="6.46326">
        <ele>1682</ele>
        <time>2021-03-11T08:17:45Z</time>
      </trkpt>
      <trkpt lat="45.0087" lon="6.46319">
        <ele>1683</ele>
        <time>2021-03-11T08:18:10Z</time>
      </trkpt>
      <trkpt lat="45.00866" lon="6.46315">
        <ele>1685</ele>
        <time>2021-03-11T08:18:21Z</time>
      </trkpt>
      <trkpt lat="45.00868" lon="6.46307">
        <ele>1685</ele>
        <time>2021-03-11T08:18:32Z</time>
      </trkpt>
      <trkpt lat="45.00871" lon="6.463">
        <ele>1689</ele>
        <time>2021-03-11T08:18:44Z</time>
      </trkpt>
      <trkpt lat="45.00865" lon="6.46299">
        <ele>1690</ele>
        <time>2021-03-11T08:18:59Z</time>
      </trkpt>
      <trkpt lat="45.00859" lon="6.46301">
        <ele>1691</ele>
        <time>2021-03-11T08:19:06Z</time>
      </trkpt>
      <trkpt lat="45.00855" lon="6.46301">
        <ele>1691</ele>
        <time>2021-03-11T08:19:12Z</time>
      </trkpt>
      <trkpt lat="45.00846" lon="6.46299">
        <ele>1693</ele>
        <time>2021-03-11T08:19:27Z</time>
      </trkpt>
      <trkpt lat="45.00839" lon="6.46297">
        <ele>1694</ele>
        <time>2021-03-11T08:19:36Z</time>
      </trkpt>
      <trkpt lat="45.00836" lon="6.46297">
        <ele>1694</ele>
        <time>2021-03-11T08:19:40Z</time>
      </trkpt>
      <trkpt lat="45.00833" lon="6.46299">
        <ele>1695</ele>
        <time>2021-03-11T08:19:44Z</time>
      </trkpt>
      <trkpt lat="45.0083" lon="6.463">
        <ele>1695</ele>
        <time>2021-03-11T08:19:48Z</time>
      </trkpt>
      <trkpt lat="45.00826" lon="6.46302">
        <ele>1695</ele>
        <time>2021-03-11T08:19:52Z</time>
      </trkpt>
      <trkpt lat="45.00818" lon="6.46303">
        <ele>1695</ele>
        <time>2021-03-11T08:20:00Z</time>
      </trkpt>
      <trkpt lat="45.00816" lon="6.46301">
        <ele>1693</ele>
        <time>2021-03-11T08:20:04Z</time>
      </trkpt>
      <trkpt lat="45.00813" lon="6.46299">
        <ele>1693</ele>
        <time>2021-03-11T08:20:08Z</time>
      </trkpt>
      <trkpt lat="45.0081" lon="6.46297">
        <ele>1693</ele>
        <time>2021-03-11T08:20:12Z</time>
      </trkpt>
      <trkpt lat="45.00807" lon="6.46296">
        <ele>1694</ele>
        <time>2021-03-11T08:20:16Z</time>
      </trkpt>
      <trkpt lat="45.00797" lon="6.46292">
        <ele>1694</ele>
        <time>2021-03-11T08:20:28Z</time>
      </trkpt>
      <trkpt lat="45.00789" lon="6.46293">
        <ele>1695</ele>
        <time>2021-03-11T08:20:36Z</time>
      </trkpt>
      <trkpt lat="45.00784" lon="6.46293">
        <ele>1695</ele>
        <time>2021-03-11T08:20:40Z</time>
      </trkpt>
      <trkpt lat="45.00777" lon="6.4629">
        <ele>1695</ele>
        <time>2021-03-11T08:20:47Z</time>
      </trkpt>
      <trkpt lat="45.00772" lon="6.46287">
        <ele>1695</ele>
        <time>2021-03-11T08:20:53Z</time>
      </trkpt>
      <trkpt lat="45.00765" lon="6.46284">
        <ele>1695</ele>
        <time>2021-03-11T08:21:00Z</time>
      </trkpt>
      <trkpt lat="45.00759" lon="6.46283">
        <ele>1693</ele>
        <time>2021-03-11T08:21:12Z</time>
      </trkpt>
      <trkpt lat="45.00753" lon="6.46283">
        <ele>1694</ele>
        <time>2021-03-11T08:21:18Z</time>
      </trkpt>
      <trkpt lat="45.00747" lon="6.46285">
        <ele>1693</ele>
        <time>2021-03-11T08:21:25Z</time>
      </trkpt>
      <trkpt lat="45.0074" lon="6.46283">
        <ele>1693</ele>
        <time>2021-03-11T08:21:32Z</time>
      </trkpt>
      <trkpt lat="45.00734" lon="6.46278">
        <ele>1692</ele>
        <time>2021-03-11T08:21:39Z</time>
      </trkpt>
      <trkpt lat="45.00728" lon="6.46275">
        <ele>1692</ele>
        <time>2021-03-11T08:21:46Z</time>
      </trkpt>
      <trkpt lat="45.0072" lon="6.46273">
        <ele>1692</ele>
        <time>2021-03-11T08:21:53Z</time>
      </trkpt>
      <trkpt lat="45.00714" lon="6.46268">
        <ele>1692</ele>
        <time>2021-03-11T08:22:01Z</time>
      </trkpt>
      <trkpt lat="45.00708" lon="6.46265">
        <ele>1693</ele>
        <time>2021-03-11T08:22:11Z</time>
      </trkpt>
      <trkpt lat="45.00703" lon="6.46266">
        <ele>1693</ele>
        <time>2021-03-11T08:22:18Z</time>
      </trkpt>
      <trkpt lat="45.00697" lon="6.46267">
        <ele>1693</ele>
        <time>2021-03-11T08:22:26Z</time>
      </trkpt>
      <trkpt lat="45.00692" lon="6.46271">
        <ele>1693</ele>
        <time>2021-03-11T08:22:40Z</time>
      </trkpt>
      <trkpt lat="45.00688" lon="6.46276">
        <ele>1695</ele>
        <time>2021-03-11T08:22:54Z</time>
      </trkpt>
      <trkpt lat="45.00682" lon="6.46282">
        <ele>1696</ele>
        <time>2021-03-11T08:23:07Z</time>
      </trkpt>
      <trkpt lat="45.00675" lon="6.46284">
        <ele>1697</ele>
        <time>2021-03-11T08:23:16Z</time>
      </trkpt>
      <trkpt lat="45.00665" lon="6.4628">
        <ele>1699</ele>
        <time>2021-03-11T08:23:35Z</time>
      </trkpt>
      <trkpt lat="45.00657" lon="6.46276">
        <ele>1700</ele>
        <time>2021-03-11T08:23:49Z</time>
      </trkpt>
      <trkpt lat="45.00649" lon="6.46271">
        <ele>1703</ele>
        <time>2021-03-11T08:24:04Z</time>
      </trkpt>
      <trkpt lat="45.0064" lon="6.46267">
        <ele>1703</ele>
        <time>2021-03-11T08:24:17Z</time>
      </trkpt>
      <trkpt lat="45.00632" lon="6.46261">
        <ele>1704</ele>
        <time>2021-03-11T08:24:28Z</time>
      </trkpt>
      <trkpt lat="45.00626" lon="6.46252">
        <ele>1706</ele>
        <time>2021-03-11T08:24:44Z</time>
      </trkpt>
      <trkpt lat="45.00616" lon="6.4625">
        <ele>1709</ele>
        <time>2021-03-11T08:25:10Z</time>
      </trkpt>
      <trkpt lat="45.00606" lon="6.46248">
        <ele>1712</ele>
        <time>2021-03-11T08:25:24Z</time>
      </trkpt>
      <trkpt lat="45.00599" lon="6.46246">
        <ele>1713</ele>
        <time>2021-03-11T08:25:42Z</time>
      </trkpt>
      <trkpt lat="45.00593" lon="6.4625">
        <ele>1714</ele>
        <time>2021-03-11T08:25:52Z</time>
      </trkpt>
      <trkpt lat="45.00585" lon="6.46251">
        <ele>1715</ele>
        <time>2021-03-11T08:26:05Z</time>
      </trkpt>
      <trkpt lat="45.00579" lon="6.46242">
        <ele>1719</ele>
        <time>2021-03-11T08:26:27Z</time>
      </trkpt>
      <trkpt lat="45.00579" lon="6.46231">
        <ele>1720</ele>
        <time>2021-03-11T08:26:36Z</time>
      </trkpt>
      <trkpt lat="45.00582" lon="6.46219">
        <ele>1721</ele>
        <time>2021-03-11T08:26:52Z</time>
      </trkpt>
      <trkpt lat="45.00587" lon="6.46206">
        <ele>1724</ele>
        <time>2021-03-11T08:27:14Z</time>
      </trkpt>
      <trkpt lat="45.00593" lon="6.46193">
        <ele>1725</ele>
        <time>2021-03-11T08:27:31Z</time>
      </trkpt>
      <trkpt lat="45.00596" lon="6.4618">
        <ele>1727</ele>
        <time>2021-03-11T08:27:51Z</time>
      </trkpt>
      <trkpt lat="45.00604" lon="6.46175">
        <ele>1731</ele>
        <time>2021-03-11T08:28:10Z</time>
      </trkpt>
      <trkpt lat="45.00611" lon="6.46166">
        <ele>1735</ele>
        <time>2021-03-11T08:28:36Z</time>
      </trkpt>
      <trkpt lat="45.0062" lon="6.46159">
        <ele>1736</ele>
        <time>2021-03-11T08:28:50Z</time>
      </trkpt>
      <trkpt lat="45.00628" lon="6.46153">
        <ele>1738</ele>
        <time>2021-03-11T08:29:07Z</time>
      </trkpt>
      <trkpt lat="45.00636" lon="6.46146">
        <ele>1740</ele>
        <time>2021-03-11T08:29:33Z</time>
      </trkpt>
      <trkpt lat="45.00641" lon="6.46138">
        <ele>1743</ele>
        <time>2021-03-11T08:29:47Z</time>
      </trkpt>
      <trkpt lat="45.00644" lon="6.46129">
        <ele>1745</ele>
        <time>2021-03-11T08:30:02Z</time>
      </trkpt>
      <trkpt lat="45.00648" lon="6.46119">
        <ele>1747</ele>
        <time>2021-03-11T08:30:19Z</time>
      </trkpt>
      <trkpt lat="45.0064" lon="6.46119">
        <ele>1749</ele>
        <time>2021-03-11T08:30:44Z</time>
      </trkpt>
      <trkpt lat="45.00634" lon="6.46111">
        <ele>1750</ele>
        <time>2021-03-11T08:31:00Z</time>
      </trkpt>
      <trkpt lat="45.00634" lon="6.461">
        <ele>1753</ele>
        <time>2021-03-11T08:31:18Z</time>
      </trkpt>
      <trkpt lat="45.00625" lon="6.46094">
        <ele>1755</ele>
        <time>2021-03-11T08:31:34Z</time>
      </trkpt>
      <trkpt lat="45.00616" lon="6.46091">
        <ele>1756</ele>
        <time>2021-03-11T08:31:49Z</time>
      </trkpt>
      <trkpt lat="45.00607" lon="6.4609">
        <ele>1758</ele>
        <time>2021-03-11T08:32:04Z</time>
      </trkpt>
      <trkpt lat="45.00597" lon="6.46091">
        <ele>1760</ele>
        <time>2021-03-11T08:32:31Z</time>
      </trkpt>
      <trkpt lat="45.00587" lon="6.4609">
        <ele>1762</ele>
        <time>2021-03-11T08:33:03Z</time>
      </trkpt>
      <trkpt lat="45.0058" lon="6.46094">
        <ele>1765</ele>
        <time>2021-03-11T08:33:23Z</time>
      </trkpt>
      <trkpt lat="45.00572" lon="6.46097">
        <ele>1765</ele>
        <time>2021-03-11T08:33:39Z</time>
      </trkpt>
      <trkpt lat="45.00564" lon="6.46096">
        <ele>1765</ele>
        <time>2021-03-11T08:33:53Z</time>
      </trkpt>
      <trkpt lat="45.00557" lon="6.46097">
        <ele>1767</ele>
        <time>2021-03-11T08:34:05Z</time>
      </trkpt>
      <trkpt lat="45.00548" lon="6.46099">
        <ele>1767</ele>
        <time>2021-03-11T08:34:18Z</time>
      </trkpt>
      <trkpt lat="45.0054" lon="6.461">
        <ele>1768</ele>
        <time>2021-03-11T08:34:32Z</time>
      </trkpt>
      <trkpt lat="45.00531" lon="6.46103">
        <ele>1769</ele>
        <time>2021-03-11T08:34:47Z</time>
      </trkpt>
      <trkpt lat="45.00524" lon="6.46101">
        <ele>1768</ele>
        <time>2021-03-11T08:34:57Z</time>
      </trkpt>
      <trkpt lat="45.00516" lon="6.46101">
        <ele>1768</ele>
        <time>2021-03-11T08:35:08Z</time>
      </trkpt>
      <trkpt lat="45.0051" lon="6.46099">
        <ele>1770</ele>
        <time>2021-03-11T08:35:24Z</time>
      </trkpt>
      <trkpt lat="45.00504" lon="6.46102">
        <ele>1770</ele>
        <time>2021-03-11T08:35:29Z</time>
      </trkpt>
      <trkpt lat="45.00499" lon="6.46096">
        <ele>1768</ele>
        <time>2021-03-11T08:35:44Z</time>
      </trkpt>
      <trkpt lat="45.00493" lon="6.46094">
        <ele>1769</ele>
        <time>2021-03-11T08:35:58Z</time>
      </trkpt>
      <trkpt lat="45.00488" lon="6.4609">
        <ele>1769</ele>
        <time>2021-03-11T08:36:17Z</time>
      </trkpt>
      <trkpt lat="45.00486" lon="6.46076">
        <ele>1768</ele>
        <time>2021-03-11T08:36:31Z</time>
      </trkpt>
      <trkpt lat="45.00481" lon="6.46071">
        <ele>1769</ele>
        <time>2021-03-11T08:36:39Z</time>
      </trkpt>
      <trkpt lat="45.00477" lon="6.4607">
        <ele>1769</ele>
        <time>2021-03-11T08:36:43Z</time>
      </trkpt>
      <trkpt lat="45.00469" lon="6.46066">
        <ele>1771</ele>
        <time>2021-03-11T08:36:50Z</time>
      </trkpt>
      <trkpt lat="45.00466" lon="6.46063">
        <ele>1771</ele>
        <time>2021-03-11T08:36:54Z</time>
      </trkpt>
      <trkpt lat="45.00463" lon="6.46061">
        <ele>1771</ele>
        <time>2021-03-11T08:36:59Z</time>
      </trkpt>
      <trkpt lat="45.00465" lon="6.46049">
        <ele>1774</ele>
        <time>2021-03-11T08:38:10Z</time>
      </trkpt>
      <trkpt lat="45.00462" lon="6.46047">
        <ele>1776</ele>
        <time>2021-03-11T08:39:03Z</time>
      </trkpt>
      <trkpt lat="45.00459" lon="6.46047">
        <ele>1774</ele>
        <time>2021-03-11T08:39:07Z</time>
      </trkpt>
      <trkpt lat="45.00455" lon="6.46048">
        <ele>1774</ele>
        <time>2021-03-11T08:39:13Z</time>
      </trkpt>
      <trkpt lat="45.00453" lon="6.46047">
        <ele>1775</ele>
        <time>2021-03-11T08:39:18Z</time>
      </trkpt>
      <trkpt lat="45.0045" lon="6.46047">
        <ele>1775</ele>
        <time>2021-03-11T08:39:22Z</time>
      </trkpt>
      <trkpt lat="45.00448" lon="6.46046">
        <ele>1777</ele>
        <time>2021-03-11T08:39:26Z</time>
      </trkpt>
      <trkpt lat="45.00445" lon="6.46044">
        <ele>1777</ele>
        <time>2021-03-11T08:39:31Z</time>
      </trkpt>
      <trkpt lat="45.00439" lon="6.46043">
        <ele>1778</ele>
        <time>2021-03-11T08:39:38Z</time>
      </trkpt>
      <trkpt lat="45.00436" lon="6.46042">
        <ele>1778</ele>
        <time>2021-03-11T08:39:43Z</time>
      </trkpt>
      <trkpt lat="45.00433" lon="6.46042">
        <ele>1779</ele>
        <time>2021-03-11T08:39:48Z</time>
      </trkpt>
      <trkpt lat="45.0043" lon="6.46041">
        <ele>1779</ele>
        <time>2021-03-11T08:39:52Z</time>
      </trkpt>
      <trkpt lat="45.00427" lon="6.4604">
        <ele>1781</ele>
        <time>2021-03-11T08:39:58Z</time>
      </trkpt>
      <trkpt lat="45.00424" lon="6.46041">
        <ele>1781</ele>
        <time>2021-03-11T08:40:02Z</time>
      </trkpt>
      <trkpt lat="45.00421" lon="6.4604">
        <ele>1783</ele>
        <time>2021-03-11T08:40:07Z</time>
      </trkpt>
      <trkpt lat="45.00418" lon="6.46039">
        <ele>1783</ele>
        <time>2021-03-11T08:40:12Z</time>
      </trkpt>
      <trkpt lat="45.00416" lon="6.46039">
        <ele>1784</ele>
        <time>2021-03-11T08:40:17Z</time>
      </trkpt>
      <trkpt lat="45.00412" lon="6.46038">
        <ele>1785</ele>
        <time>2021-03-11T08:40:26Z</time>
      </trkpt>
      <trkpt lat="45.00409" lon="6.46038">
        <ele>1785</ele>
        <time>2021-03-11T08:40:31Z</time>
      </trkpt>
      <trkpt lat="45.00407" lon="6.46037">
        <ele>1787</ele>
        <time>2021-03-11T08:40:37Z</time>
      </trkpt>
      <trkpt lat="45.00405" lon="6.46037">
        <ele>1788</ele>
        <time>2021-03-11T08:40:46Z</time>
      </trkpt>
      <trkpt lat="45.00404" lon="6.46034">
        <ele>1788</ele>
        <time>2021-03-11T08:40:53Z</time>
      </trkpt>
      <trkpt lat="45.00405" lon="6.46031">
        <ele>1788</ele>
        <time>2021-03-11T08:40:57Z</time>
      </trkpt>
      <trkpt lat="45.00407" lon="6.46026">
        <ele>1789</ele>
        <time>2021-03-11T08:41:05Z</time>
      </trkpt>
      <trkpt lat="45.0041" lon="6.46022">
        <ele>1791</ele>
        <time>2021-03-11T08:41:14Z</time>
      </trkpt>
      <trkpt lat="45.00411" lon="6.46018">
        <ele>1791</ele>
        <time>2021-03-11T08:41:21Z</time>
      </trkpt>
      <trkpt lat="45.00412" lon="6.46012">
        <ele>1792</ele>
        <time>2021-03-11T08:41:29Z</time>
      </trkpt>
      <trkpt lat="45.00416" lon="6.46005">
        <ele>1793</ele>
        <time>2021-03-11T08:41:40Z</time>
      </trkpt>
      <trkpt lat="45.00418" lon="6.46002">
        <ele>1795</ele>
        <time>2021-03-11T08:41:54Z</time>
      </trkpt>
      <trkpt lat="45.00419" lon="6.45998">
        <ele>1795</ele>
        <time>2021-03-11T08:42:00Z</time>
      </trkpt>
      <trkpt lat="45.00422" lon="6.45987">
        <ele>1796</ele>
        <time>2021-03-11T08:42:14Z</time>
      </trkpt>
      <trkpt lat="45.00422" lon="6.45982">
        <ele>1796</ele>
        <time>2021-03-11T08:42:23Z</time>
      </trkpt>
      <trkpt lat="45.00422" lon="6.45978">
        <ele>1798</ele>
        <time>2021-03-11T08:42:32Z</time>
      </trkpt>
      <trkpt lat="45.00424" lon="6.4597">
        <ele>1801</ele>
        <time>2021-03-11T08:42:44Z</time>
      </trkpt>
      <trkpt lat="45.00424" lon="6.45966">
        <ele>1801</ele>
        <time>2021-03-11T08:42:50Z</time>
      </trkpt>
      <trkpt lat="45.00423" lon="6.45963">
        <ele>1802</ele>
        <time>2021-03-11T08:42:59Z</time>
      </trkpt>
      <trkpt lat="45.00421" lon="6.45962">
        <ele>1803</ele>
        <time>2021-03-11T08:43:05Z</time>
      </trkpt>
      <trkpt lat="45.00416" lon="6.45962">
        <ele>1805</ele>
        <time>2021-03-11T08:43:17Z</time>
      </trkpt>
      <trkpt lat="45.00414" lon="6.45961">
        <ele>1805</ele>
        <time>2021-03-11T08:43:22Z</time>
      </trkpt>
      <trkpt lat="45.00412" lon="6.45962">
        <ele>1806</ele>
        <time>2021-03-11T08:43:27Z</time>
      </trkpt>
      <trkpt lat="45.0041" lon="6.45962">
        <ele>1806</ele>
        <time>2021-03-11T08:43:32Z</time>
      </trkpt>
      <trkpt lat="45.00407" lon="6.45962">
        <ele>1807</ele>
        <time>2021-03-11T08:43:38Z</time>
      </trkpt>
      <trkpt lat="45.00404" lon="6.45962">
        <ele>1809</ele>
        <time>2021-03-11T08:43:46Z</time>
      </trkpt>
      <trkpt lat="45.00404" lon="6.45958">
        <ele>1809</ele>
        <time>2021-03-11T08:43:52Z</time>
      </trkpt>
      <trkpt lat="45.00406" lon="6.45953">
        <ele>1810</ele>
        <time>2021-03-11T08:43:58Z</time>
      </trkpt>
      <trkpt lat="45.00407" lon="6.45949">
        <ele>1812</ele>
        <time>2021-03-11T08:44:04Z</time>
      </trkpt>
      <trkpt lat="45.00407" lon="6.45947">
        <ele>1812</ele>
        <time>2021-03-11T08:44:10Z</time>
      </trkpt>
      <trkpt lat="45.00408" lon="6.45942">
        <ele>1813</ele>
        <time>2021-03-11T08:44:17Z</time>
      </trkpt>
      <trkpt lat="45.0041" lon="6.45935">
        <ele>1814</ele>
        <time>2021-03-11T08:44:30Z</time>
      </trkpt>
      <trkpt lat="45.00411" lon="6.45931">
        <ele>1815</ele>
        <time>2021-03-11T08:44:36Z</time>
      </trkpt>
      <trkpt lat="45.00411" lon="6.45928">
        <ele>1815</ele>
        <time>2021-03-11T08:44:41Z</time>
      </trkpt>
      <trkpt lat="45.00412" lon="6.45925">
        <ele>1816</ele>
        <time>2021-03-11T08:44:46Z</time>
      </trkpt>
      <trkpt lat="45.00413" lon="6.45921">
        <ele>1816</ele>
        <time>2021-03-11T08:44:52Z</time>
      </trkpt>
      <trkpt lat="45.00413" lon="6.45918">
        <ele>1817</ele>
        <time>2021-03-11T08:44:58Z</time>
      </trkpt>
      <trkpt lat="45.00413" lon="6.45914">
        <ele>1818</ele>
        <time>2021-03-11T08:45:06Z</time>
      </trkpt>
      <trkpt lat="45.00414" lon="6.4591">
        <ele>1818</ele>
        <time>2021-03-11T08:45:12Z</time>
      </trkpt>
      <trkpt lat="45.00414" lon="6.45907">
        <ele>1820</ele>
        <time>2021-03-11T08:45:17Z</time>
      </trkpt>
      <trkpt lat="45.00414" lon="6.45903">
        <ele>1820</ele>
        <time>2021-03-11T08:45:23Z</time>
      </trkpt>
      <trkpt lat="45.00415" lon="6.45897">
        <ele>1821</ele>
        <time>2021-03-11T08:45:33Z</time>
      </trkpt>
      <trkpt lat="45.00415" lon="6.45892">
        <ele>1823</ele>
        <time>2021-03-11T08:45:42Z</time>
      </trkpt>
      <trkpt lat="45.00416" lon="6.45878">
        <ele>1827</ele>
        <time>2021-03-11T08:46:07Z</time>
      </trkpt>
      <trkpt lat="45.00409" lon="6.45868">
        <ele>1828</ele>
        <time>2021-03-11T08:46:33Z</time>
      </trkpt>
      <trkpt lat="45.00399" lon="6.45866">
        <ele>1832</ele>
        <time>2021-03-11T08:46:57Z</time>
      </trkpt>
      <trkpt lat="45.00398" lon="6.4586">
        <ele>1834</ele>
        <time>2021-03-11T08:47:10Z</time>
      </trkpt>
      <trkpt lat="45.00392" lon="6.45848">
        <ele>1837</ele>
        <time>2021-03-11T08:47:40Z</time>
      </trkpt>
      <trkpt lat="45.00388" lon="6.45835">
        <ele>1841</ele>
        <time>2021-03-11T08:48:11Z</time>
      </trkpt>
      <trkpt lat="45.0039" lon="6.45821">
        <ele>1844</ele>
        <time>2021-03-11T08:48:34Z</time>
      </trkpt>
      <trkpt lat="45.0039" lon="6.45807">
        <ele>1847</ele>
        <time>2021-03-11T08:48:54Z</time>
      </trkpt>
      <trkpt lat="45.00384" lon="6.45796">
        <ele>1848</ele>
        <time>2021-03-11T08:49:12Z</time>
      </trkpt>
      <trkpt lat="45.00381" lon="6.45783">
        <ele>1851</ele>
        <time>2021-03-11T08:49:35Z</time>
      </trkpt>
      <trkpt lat="45.0038" lon="6.45768">
        <ele>1853</ele>
        <time>2021-03-11T08:50:00Z</time>
      </trkpt>
      <trkpt lat="45.00376" lon="6.45756">
        <ele>1855</ele>
        <time>2021-03-11T08:50:16Z</time>
      </trkpt>
      <trkpt lat="45.00372" lon="6.45743">
        <ele>1857</ele>
        <time>2021-03-11T08:50:33Z</time>
      </trkpt>
      <trkpt lat="45.00372" lon="6.45728">
        <ele>1859</ele>
        <time>2021-03-11T08:50:46Z</time>
      </trkpt>
      <trkpt lat="45.00371" lon="6.45719">
        <ele>1860</ele>
        <time>2021-03-11T08:50:57Z</time>
      </trkpt>
      <trkpt lat="45.00368" lon="6.45713">
        <ele>1861</ele>
        <time>2021-03-11T08:51:07Z</time>
      </trkpt>
      <trkpt lat="45.00366" lon="6.45701">
        <ele>1863</ele>
        <time>2021-03-11T08:51:21Z</time>
      </trkpt>
      <trkpt lat="45.00363" lon="6.45694">
        <ele>1865</ele>
        <time>2021-03-11T08:51:30Z</time>
      </trkpt>
      <trkpt lat="45.00357" lon="6.45691">
        <ele>1865</ele>
        <time>2021-03-11T08:52:18Z</time>
      </trkpt>
      <trkpt lat="45.00355" lon="6.45695">
        <ele>1865</ele>
        <time>2021-03-11T08:53:21Z</time>
      </trkpt>
      <trkpt lat="45.00358" lon="6.45683">
        <ele>1864</ele>
        <time>2021-03-11T08:55:59Z</time>
      </trkpt>
      <trkpt lat="45.00352" lon="6.45671">
        <ele>1866</ele>
        <time>2021-03-11T09:02:36Z</time>
      </trkpt>
      <trkpt lat="45.00348" lon="6.45658">
        <ele>1866</ele>
        <time>2021-03-11T09:02:51Z</time>
      </trkpt>
      <trkpt lat="45.00346" lon="6.45649">
        <ele>1867</ele>
        <time>2021-03-11T09:03:01Z</time>
      </trkpt>
      <trkpt lat="45.00347" lon="6.45643">
        <ele>1869</ele>
        <time>2021-03-11T09:03:08Z</time>
      </trkpt>
      <trkpt lat="45.00346" lon="6.45638">
        <ele>1869</ele>
        <time>2021-03-11T09:03:13Z</time>
      </trkpt>
      <trkpt lat="45.00346" lon="6.45634">
        <ele>1870</ele>
        <time>2021-03-11T09:03:18Z</time>
      </trkpt>
      <trkpt lat="45.00346" lon="6.45629">
        <ele>1870</ele>
        <time>2021-03-11T09:03:23Z</time>
      </trkpt>
      <trkpt lat="45.00346" lon="6.45625">
        <ele>1872</ele>
        <time>2021-03-11T09:03:27Z</time>
      </trkpt>
      <trkpt lat="45.00351" lon="6.45612">
        <ele>1872</ele>
        <time>2021-03-11T09:03:41Z</time>
      </trkpt>
      <trkpt lat="45.00354" lon="6.45599">
        <ele>1875</ele>
        <time>2021-03-11T09:03:56Z</time>
      </trkpt>
      <trkpt lat="45.00358" lon="6.45585">
        <ele>1878</ele>
        <time>2021-03-11T09:04:14Z</time>
      </trkpt>
      <trkpt lat="45.00363" lon="6.45572">
        <ele>1878</ele>
        <time>2021-03-11T09:04:28Z</time>
      </trkpt>
      <trkpt lat="45.00368" lon="6.45559">
        <ele>1879</ele>
        <time>2021-03-11T09:04:42Z</time>
      </trkpt>
      <trkpt lat="45.00368" lon="6.45544">
        <ele>1881</ele>
        <time>2021-03-11T09:04:56Z</time>
      </trkpt>
      <trkpt lat="45.00369" lon="6.45531">
        <ele>1884</ele>
        <time>2021-03-11T09:05:21Z</time>
      </trkpt>
      <trkpt lat="45.00379" lon="6.45525">
        <ele>1886</ele>
        <time>2021-03-11T09:05:38Z</time>
      </trkpt>
      <trkpt lat="45.0039" lon="6.45525">
        <ele>1888</ele>
        <time>2021-03-11T09:06:02Z</time>
      </trkpt>
      <trkpt lat="45.00399" lon="6.45521">
        <ele>1891</ele>
        <time>2021-03-11T09:06:21Z</time>
      </trkpt>
      <trkpt lat="45.00408" lon="6.45515">
        <ele>1893</ele>
        <time>2021-03-11T09:06:42Z</time>
      </trkpt>
      <trkpt lat="45.00415" lon="6.45504">
        <ele>1896</ele>
        <time>2021-03-11T09:07:06Z</time>
      </trkpt>
      <trkpt lat="45.00414" lon="6.4549">
        <ele>1900</ele>
        <time>2021-03-11T09:07:33Z</time>
      </trkpt>
      <trkpt lat="45.00412" lon="6.45479">
        <ele>1901</ele>
        <time>2021-03-11T09:07:48Z</time>
      </trkpt>
      <trkpt lat="45.00405" lon="6.45468">
        <ele>1904</ele>
        <time>2021-03-11T09:08:16Z</time>
      </trkpt>
      <trkpt lat="45.00396" lon="6.45462">
        <ele>1907</ele>
        <time>2021-03-11T09:08:38Z</time>
      </trkpt>
      <trkpt lat="45.00394" lon="6.45448">
        <ele>1908</ele>
        <time>2021-03-11T09:08:48Z</time>
      </trkpt>
      <trkpt lat="45.00393" lon="6.45433">
        <ele>1911</ele>
        <time>2021-03-11T09:09:04Z</time>
      </trkpt>
      <trkpt lat="45.00389" lon="6.4542">
        <ele>1913</ele>
        <time>2021-03-11T09:09:21Z</time>
      </trkpt>
      <trkpt lat="45.00383" lon="6.45409">
        <ele>1917</ele>
        <time>2021-03-11T09:09:49Z</time>
      </trkpt>
      <trkpt lat="45.00382" lon="6.45394">
        <ele>1919</ele>
        <time>2021-03-11T09:10:01Z</time>
      </trkpt>
      <trkpt lat="45.0038" lon="6.4538">
        <ele>1920</ele>
        <time>2021-03-11T09:10:23Z</time>
      </trkpt>
      <trkpt lat="45.00377" lon="6.45366">
        <ele>1925</ele>
        <time>2021-03-11T09:10:50Z</time>
      </trkpt>
      <trkpt lat="45.00379" lon="6.45352">
        <ele>1927</ele>
        <time>2021-03-11T09:11:11Z</time>
      </trkpt>
      <trkpt lat="45.00377" lon="6.45338">
        <ele>1930</ele>
        <time>2021-03-11T09:11:26Z</time>
      </trkpt>
      <trkpt lat="45.00377" lon="6.45323">
        <ele>1934</ele>
        <time>2021-03-11T09:11:56Z</time>
      </trkpt>
      <trkpt lat="45.00374" lon="6.45311">
        <ele>1938</ele>
        <time>2021-03-11T09:12:24Z</time>
      </trkpt>
      <trkpt lat="45.00365" lon="6.45308">
        <ele>1940</ele>
        <time>2021-03-11T09:12:43Z</time>
      </trkpt>
      <trkpt lat="45.00364" lon="6.45294">
        <ele>1943</ele>
        <time>2021-03-11T09:13:06Z</time>
      </trkpt>
      <trkpt lat="45.00366" lon="6.45281">
        <ele>1946</ele>
        <time>2021-03-11T09:13:29Z</time>
      </trkpt>
      <trkpt lat="45.00367" lon="6.45267">
        <ele>1948</ele>
        <time>2021-03-11T09:13:49Z</time>
      </trkpt>
      <trkpt lat="45.0036" lon="6.45261">
        <ele>1950</ele>
        <time>2021-03-11T09:14:03Z</time>
      </trkpt>
      <trkpt lat="45.00352" lon="6.45262">
        <ele>1951</ele>
        <time>2021-03-11T09:14:19Z</time>
      </trkpt>
      <trkpt lat="45.0035" lon="6.45262">
        <ele>1953</ele>
        <time>2021-03-11T09:14:24Z</time>
      </trkpt>
      <trkpt lat="45.00348" lon="6.45263">
        <ele>1953</ele>
        <time>2021-03-11T09:14:29Z</time>
      </trkpt>
      <trkpt lat="45.00344" lon="6.45263">
        <ele>1954</ele>
        <time>2021-03-11T09:14:36Z</time>
      </trkpt>
      <trkpt lat="45.00342" lon="6.45263">
        <ele>1954</ele>
        <time>2021-03-11T09:14:41Z</time>
      </trkpt>
      <trkpt lat="45.00333" lon="6.45259">
        <ele>1957</ele>
        <time>2021-03-11T09:15:00Z</time>
      </trkpt>
      <trkpt lat="45.00324" lon="6.45257">
        <ele>1959</ele>
        <time>2021-03-11T09:15:21Z</time>
      </trkpt>
      <trkpt lat="45.00315" lon="6.45251">
        <ele>1961</ele>
        <time>2021-03-11T09:15:39Z</time>
      </trkpt>
      <trkpt lat="45.00313" lon="6.45238">
        <ele>1964</ele>
        <time>2021-03-11T09:16:08Z</time>
      </trkpt>
      <trkpt lat="45.00305" lon="6.45233">
        <ele>1967</ele>
        <time>2021-03-11T09:16:32Z</time>
      </trkpt>
      <trkpt lat="45.00298" lon="6.45232">
        <ele>1969</ele>
        <time>2021-03-11T09:16:47Z</time>
      </trkpt>
      <trkpt lat="45.00295" lon="6.45232">
        <ele>1969</ele>
        <time>2021-03-11T09:16:53Z</time>
      </trkpt>
      <trkpt lat="45.00293" lon="6.45232">
        <ele>1971</ele>
        <time>2021-03-11T09:16:59Z</time>
      </trkpt>
      <trkpt lat="45.0029" lon="6.45232">
        <ele>1971</ele>
        <time>2021-03-11T09:17:04Z</time>
      </trkpt>
      <trkpt lat="45.00288" lon="6.45231">
        <ele>1971</ele>
        <time>2021-03-11T09:17:10Z</time>
      </trkpt>
      <trkpt lat="45.00286" lon="6.4523">
        <ele>1974</ele>
        <time>2021-03-11T09:17:16Z</time>
      </trkpt>
      <trkpt lat="45.00284" lon="6.4523">
        <ele>1974</ele>
        <time>2021-03-11T09:17:21Z</time>
      </trkpt>
      <trkpt lat="45.00282" lon="6.45229">
        <ele>1975</ele>
        <time>2021-03-11T09:17:26Z</time>
      </trkpt>
      <trkpt lat="45.00279" lon="6.45228">
        <ele>1975</ele>
        <time>2021-03-11T09:17:33Z</time>
      </trkpt>
      <trkpt lat="45.00272" lon="6.45227">
        <ele>1979</ele>
        <time>2021-03-11T09:17:54Z</time>
      </trkpt>
      <trkpt lat="45.00269" lon="6.45228">
        <ele>1979</ele>
        <time>2021-03-11T09:18:00Z</time>
      </trkpt>
      <trkpt lat="45.00267" lon="6.45227">
        <ele>1980</ele>
        <time>2021-03-11T09:18:06Z</time>
      </trkpt>
      <trkpt lat="45.00266" lon="6.45223">
        <ele>1980</ele>
        <time>2021-03-11T09:18:12Z</time>
      </trkpt>
      <trkpt lat="45.00265" lon="6.45217">
        <ele>1983</ele>
        <time>2021-03-11T09:18:24Z</time>
      </trkpt>
      <trkpt lat="45.00265" lon="6.45208">
        <ele>1985</ele>
        <time>2021-03-11T09:18:39Z</time>
      </trkpt>
      <trkpt lat="45.00264" lon="6.452">
        <ele>1986</ele>
        <time>2021-03-11T09:18:51Z</time>
      </trkpt>
      <trkpt lat="45.00265" lon="6.45196">
        <ele>1988</ele>
        <time>2021-03-11T09:18:58Z</time>
      </trkpt>
      <trkpt lat="45.00265" lon="6.45188">
        <ele>1989</ele>
        <time>2021-03-11T09:19:09Z</time>
      </trkpt>
      <trkpt lat="45.00266" lon="6.45185">
        <ele>1991</ele>
        <time>2021-03-11T09:19:17Z</time>
      </trkpt>
      <trkpt lat="45.00268" lon="6.45181">
        <ele>1991</ele>
        <time>2021-03-11T09:19:25Z</time>
      </trkpt>
      <trkpt lat="45.00273" lon="6.45168">
        <ele>1993</ele>
        <time>2021-03-11T09:19:43Z</time>
      </trkpt>
      <trkpt lat="45.00277" lon="6.45154">
        <ele>1995</ele>
        <time>2021-03-11T09:19:57Z</time>
      </trkpt>
      <trkpt lat="45.00277" lon="6.45149">
        <ele>1995</ele>
        <time>2021-03-11T09:20:04Z</time>
      </trkpt>
      <trkpt lat="45.00278" lon="6.45145">
        <ele>1995</ele>
        <time>2021-03-11T09:20:10Z</time>
      </trkpt>
      <trkpt lat="45.0028" lon="6.45137">
        <ele>1996</ele>
        <time>2021-03-11T09:20:23Z</time>
      </trkpt>
      <trkpt lat="45.00281" lon="6.45129">
        <ele>1999</ele>
        <time>2021-03-11T09:20:34Z</time>
      </trkpt>
      <trkpt lat="45.00282" lon="6.45126">
        <ele>1999</ele>
        <time>2021-03-11T09:20:42Z</time>
      </trkpt>
      <trkpt lat="45.00283" lon="6.45122">
        <ele>2000</ele>
        <time>2021-03-11T09:20:48Z</time>
      </trkpt>
      <trkpt lat="45.00284" lon="6.45114">
        <ele>2001</ele>
        <time>2021-03-11T09:21:01Z</time>
      </trkpt>
      <trkpt lat="45.00285" lon="6.4511">
        <ele>2003</ele>
        <time>2021-03-11T09:21:10Z</time>
      </trkpt>
      <trkpt lat="45.00286" lon="6.45104">
        <ele>2005</ele>
        <time>2021-03-11T09:21:20Z</time>
      </trkpt>
      <trkpt lat="45.00286" lon="6.45099">
        <ele>2005</ele>
        <time>2021-03-11T09:21:25Z</time>
      </trkpt>
      <trkpt lat="45.00288" lon="6.45089">
        <ele>2007</ele>
        <time>2021-03-11T09:21:40Z</time>
      </trkpt>
      <trkpt lat="45.00288" lon="6.45084">
        <ele>2009</ele>
        <time>2021-03-11T09:21:47Z</time>
      </trkpt>
      <trkpt lat="45.00288" lon="6.45081">
        <ele>2009</ele>
        <time>2021-03-11T09:21:52Z</time>
      </trkpt>
      <trkpt lat="45.00288" lon="6.45077">
        <ele>2009</ele>
        <time>2021-03-11T09:21:57Z</time>
      </trkpt>
      <trkpt lat="45.00288" lon="6.45073">
        <ele>2010</ele>
        <time>2021-03-11T09:22:04Z</time>
      </trkpt>
      <trkpt lat="45.00288" lon="6.45068">
        <ele>2010</ele>
        <time>2021-03-11T09:22:12Z</time>
      </trkpt>
      <trkpt lat="45.00289" lon="6.45059">
        <ele>2013</ele>
        <time>2021-03-11T09:22:24Z</time>
      </trkpt>
      <trkpt lat="45.00287" lon="6.4505">
        <ele>2014</ele>
        <time>2021-03-11T09:22:40Z</time>
      </trkpt>
      <trkpt lat="45.00286" lon="6.45038">
        <ele>2017</ele>
        <time>2021-03-11T09:22:55Z</time>
      </trkpt>
      <trkpt lat="45.00285" lon="6.45029">
        <ele>2019</ele>
        <time>2021-03-11T09:23:10Z</time>
      </trkpt>
      <trkpt lat="45.00285" lon="6.45019">
        <ele>2021</ele>
        <time>2021-03-11T09:23:29Z</time>
      </trkpt>
      <trkpt lat="45.00278" lon="6.45016">
        <ele>2023</ele>
        <time>2021-03-11T09:23:52Z</time>
      </trkpt>
      <trkpt lat="45.00272" lon="6.45015">
        <ele>2025</ele>
        <time>2021-03-11T09:24:08Z</time>
      </trkpt>
      <trkpt lat="45.00266" lon="6.45014">
        <ele>2027</ele>
        <time>2021-03-11T09:24:22Z</time>
      </trkpt>
      <trkpt lat="45.0026" lon="6.45013">
        <ele>2029</ele>
        <time>2021-03-11T09:24:36Z</time>
      </trkpt>
      <trkpt lat="45.00254" lon="6.45012">
        <ele>2031</ele>
        <time>2021-03-11T09:24:52Z</time>
      </trkpt>
      <trkpt lat="45.00248" lon="6.4501">
        <ele>2033</ele>
        <time>2021-03-11T09:25:06Z</time>
      </trkpt>
      <trkpt lat="45.00241" lon="6.45012">
        <ele>2037</ele>
        <time>2021-03-11T09:25:26Z</time>
      </trkpt>
      <trkpt lat="45.00235" lon="6.45016">
        <ele>2037</ele>
        <time>2021-03-11T09:25:43Z</time>
      </trkpt>
      <trkpt lat="45.00229" lon="6.4502">
        <ele>2039</ele>
        <time>2021-03-11T09:26:01Z</time>
      </trkpt>
      <trkpt lat="45.00222" lon="6.45024">
        <ele>2042</ele>
        <time>2021-03-11T09:26:20Z</time>
      </trkpt>
      <trkpt lat="45.00215" lon="6.45026">
        <ele>2044</ele>
        <time>2021-03-11T09:26:39Z</time>
      </trkpt>
      <trkpt lat="45.00208" lon="6.45029">
        <ele>2048</ele>
        <time>2021-03-11T09:26:56Z</time>
      </trkpt>
      <trkpt lat="45.00202" lon="6.45034">
        <ele>2050</ele>
        <time>2021-03-11T09:27:14Z</time>
      </trkpt>
      <trkpt lat="45.00196" lon="6.45029">
        <ele>2054</ele>
        <time>2021-03-11T09:27:45Z</time>
      </trkpt>
      <trkpt lat="45.00195" lon="6.4502">
        <ele>2056</ele>
        <time>2021-03-11T09:28:00Z</time>
      </trkpt>
      <trkpt lat="45.00197" lon="6.45009">
        <ele>2057</ele>
        <time>2021-03-11T09:28:22Z</time>
      </trkpt>
      <trkpt lat="45.00197" lon="6.44999">
        <ele>2060</ele>
        <time>2021-03-11T09:28:36Z</time>
      </trkpt>
      <trkpt lat="45.00197" lon="6.44986">
        <ele>2061</ele>
        <time>2021-03-11T09:28:54Z</time>
      </trkpt>
      <trkpt lat="45.00199" lon="6.44976">
        <ele>2062</ele>
        <time>2021-03-11T09:29:12Z</time>
      </trkpt>
      <trkpt lat="45.002" lon="6.44964">
        <ele>2065</ele>
        <time>2021-03-11T09:29:33Z</time>
      </trkpt>
      <trkpt lat="45.002" lon="6.44954">
        <ele>2067</ele>
        <time>2021-03-11T09:29:50Z</time>
      </trkpt>
      <trkpt lat="45.00201" lon="6.44947">
        <ele>2071</ele>
        <time>2021-03-11T09:30:05Z</time>
      </trkpt>
      <trkpt lat="45.002" lon="6.44936">
        <ele>2073</ele>
        <time>2021-03-11T09:30:28Z</time>
      </trkpt>
      <trkpt lat="45.002" lon="6.44925">
        <ele>2075</ele>
        <time>2021-03-11T09:30:46Z</time>
      </trkpt>
      <trkpt lat="45.00199" lon="6.44915">
        <ele>2077</ele>
        <time>2021-03-11T09:31:02Z</time>
      </trkpt>
      <trkpt lat="45.00199" lon="6.44908">
        <ele>2080</ele>
        <time>2021-03-11T09:31:15Z</time>
      </trkpt>
      <trkpt lat="45.00199" lon="6.44904">
        <ele>2080</ele>
        <time>2021-03-11T09:31:21Z</time>
      </trkpt>
      <trkpt lat="45.00198" lon="6.44894">
        <ele>2082</ele>
        <time>2021-03-11T09:31:39Z</time>
      </trkpt>
      <trkpt lat="45.00198" lon="6.44885">
        <ele>2084</ele>
        <time>2021-03-11T09:31:54Z</time>
      </trkpt>
      <trkpt lat="45.00197" lon="6.44878">
        <ele>2086</ele>
        <time>2021-03-11T09:32:06Z</time>
      </trkpt>
      <trkpt lat="45.00197" lon="6.44872">
        <ele>2087</ele>
        <time>2021-03-11T09:32:15Z</time>
      </trkpt>
      <trkpt lat="45.00197" lon="6.44865">
        <ele>2088</ele>
        <time>2021-03-11T09:32:26Z</time>
      </trkpt>
      <trkpt lat="45.00198" lon="6.44859">
        <ele>2089</ele>
        <time>2021-03-11T09:32:34Z</time>
      </trkpt>
      <trkpt lat="45.00201" lon="6.44853">
        <ele>2091</ele>
        <time>2021-03-11T09:32:46Z</time>
      </trkpt>
      <trkpt lat="45.00203" lon="6.44847">
        <ele>2093</ele>
        <time>2021-03-11T09:34:24Z</time>
      </trkpt>
      <trkpt lat="45.00197" lon="6.44848">
        <ele>2093</ele>
        <time>2021-03-11T09:43:44Z</time>
      </trkpt>
      <trkpt lat="45.00192" lon="6.4485">
        <ele>2093</ele>
        <time>2021-03-11T09:43:50Z</time>
      </trkpt>
      <trkpt lat="45.00189" lon="6.44853">
        <ele>2093</ele>
        <time>2021-03-11T09:43:57Z</time>
      </trkpt>
      <trkpt lat="45.00183" lon="6.44857">
        <ele>2094</ele>
        <time>2021-03-11T09:44:09Z</time>
      </trkpt>
      <trkpt lat="45.00177" lon="6.44859">
        <ele>2094</ele>
        <time>2021-03-11T09:44:20Z</time>
      </trkpt>
      <trkpt lat="45.00172" lon="6.44863">
        <ele>2096</ele>
        <time>2021-03-11T09:44:32Z</time>
      </trkpt>
      <trkpt lat="45.00168" lon="6.44868">
        <ele>2099</ele>
        <time>2021-03-11T09:44:45Z</time>
      </trkpt>
      <trkpt lat="45.00163" lon="6.44873">
        <ele>2100</ele>
        <time>2021-03-11T09:44:56Z</time>
      </trkpt>
      <trkpt lat="45.00159" lon="6.44879">
        <ele>2101</ele>
        <time>2021-03-11T09:45:07Z</time>
      </trkpt>
      <trkpt lat="45.00156" lon="6.44885">
        <ele>2102</ele>
        <time>2021-03-11T09:45:22Z</time>
      </trkpt>
      <trkpt lat="45.00153" lon="6.44877">
        <ele>2104</ele>
        <time>2021-03-11T09:45:42Z</time>
      </trkpt>
      <trkpt lat="45.00152" lon="6.44869">
        <ele>2107</ele>
        <time>2021-03-11T09:45:58Z</time>
      </trkpt>
      <trkpt lat="45.00151" lon="6.44861">
        <ele>2108</ele>
        <time>2021-03-11T09:46:12Z</time>
      </trkpt>
      <trkpt lat="45.00149" lon="6.44852">
        <ele>2112</ele>
        <time>2021-03-11T09:46:30Z</time>
      </trkpt>
      <trkpt lat="45.00148" lon="6.44844">
        <ele>2113</ele>
        <time>2021-03-11T09:46:43Z</time>
      </trkpt>
      <trkpt lat="45.00146" lon="6.44836">
        <ele>2116</ele>
        <time>2021-03-11T09:46:55Z</time>
      </trkpt>
      <trkpt lat="45.00144" lon="6.44829">
        <ele>2118</ele>
        <time>2021-03-11T09:47:07Z</time>
      </trkpt>
      <trkpt lat="45.00143" lon="6.44821">
        <ele>2119</ele>
        <time>2021-03-11T09:47:21Z</time>
      </trkpt>
      <trkpt lat="45.00141" lon="6.44813">
        <ele>2121</ele>
        <time>2021-03-11T09:47:35Z</time>
      </trkpt>
      <trkpt lat="45.00139" lon="6.44806">
        <ele>2123</ele>
        <time>2021-03-11T09:47:47Z</time>
      </trkpt>
      <trkpt lat="45.00138" lon="6.44797">
        <ele>2123</ele>
        <time>2021-03-11T09:48:01Z</time>
      </trkpt>
      <trkpt lat="45.00137" lon="6.4479">
        <ele>2125</ele>
        <time>2021-03-11T09:48:12Z</time>
      </trkpt>
      <trkpt lat="45.00135" lon="6.44781">
        <ele>2127</ele>
        <time>2021-03-11T09:48:29Z</time>
      </trkpt>
      <trkpt lat="45.00134" lon="6.44773">
        <ele>2130</ele>
        <time>2021-03-11T09:48:44Z</time>
      </trkpt>
      <trkpt lat="45.00135" lon="6.44765">
        <ele>2131</ele>
        <time>2021-03-11T09:48:59Z</time>
      </trkpt>
      <trkpt lat="45.00135" lon="6.44754">
        <ele>2132</ele>
        <time>2021-03-11T09:49:13Z</time>
      </trkpt>
      <trkpt lat="45.00134" lon="6.44748">
        <ele>2135</ele>
        <time>2021-03-11T09:49:28Z</time>
      </trkpt>
      <trkpt lat="45.00134" lon="6.4474">
        <ele>2136</ele>
        <time>2021-03-11T09:49:34Z</time>
      </trkpt>
      <trkpt lat="45.00132" lon="6.44732">
        <ele>2136</ele>
        <time>2021-03-11T09:49:43Z</time>
      </trkpt>
      <trkpt lat="45.00127" lon="6.44724">
        <ele>2139</ele>
        <time>2021-03-11T09:50:01Z</time>
      </trkpt>
      <trkpt lat="45.00122" lon="6.44722">
        <ele>2140</ele>
        <time>2021-03-11T09:50:17Z</time>
      </trkpt>
      <trkpt lat="45.00115" lon="6.44719">
        <ele>2142</ele>
        <time>2021-03-11T09:50:31Z</time>
      </trkpt>
      <trkpt lat="45.0011" lon="6.44713">
        <ele>2146</ele>
        <time>2021-03-11T09:50:45Z</time>
      </trkpt>
      <trkpt lat="45.00106" lon="6.44706">
        <ele>2148</ele>
        <time>2021-03-11T09:51:01Z</time>
      </trkpt>
      <trkpt lat="45.00103" lon="6.44699">
        <ele>2149</ele>
        <time>2021-03-11T09:51:13Z</time>
      </trkpt>
      <trkpt lat="45.001" lon="6.44692">
        <ele>2152</ele>
        <time>2021-03-11T09:51:25Z</time>
      </trkpt>
      <trkpt lat="45.00099" lon="6.44686">
        <ele>2154</ele>
        <time>2021-03-11T09:51:35Z</time>
      </trkpt>
      <trkpt lat="45.00096" lon="6.4468">
        <ele>2154</ele>
        <time>2021-03-11T09:51:45Z</time>
      </trkpt>
      <trkpt lat="45.00094" lon="6.44672">
        <ele>2155</ele>
        <time>2021-03-11T09:51:57Z</time>
      </trkpt>
      <trkpt lat="45.00092" lon="6.44665">
        <ele>2157</ele>
        <time>2021-03-11T09:52:06Z</time>
      </trkpt>
      <trkpt lat="45.00091" lon="6.44659">
        <ele>2157</ele>
        <time>2021-03-11T09:52:13Z</time>
      </trkpt>
      <trkpt lat="45.0009" lon="6.44656">
        <ele>2159</ele>
        <time>2021-03-11T09:52:16Z</time>
      </trkpt>
      <trkpt lat="45.00089" lon="6.44654">
        <ele>2159</ele>
        <time>2021-03-11T09:52:19Z</time>
      </trkpt>
      <trkpt lat="45.00088" lon="6.44651">
        <ele>2159</ele>
        <time>2021-03-11T09:52:22Z</time>
      </trkpt>
      <trkpt lat="45.00087" lon="6.44649">
        <ele>2159</ele>
        <time>2021-03-11T09:52:25Z</time>
      </trkpt>
      <trkpt lat="45.00086" lon="6.44646">
        <ele>2159</ele>
        <time>2021-03-11T09:52:28Z</time>
      </trkpt>
      <trkpt lat="45.00084" lon="6.4464">
        <ele>2160</ele>
        <time>2021-03-11T09:52:34Z</time>
      </trkpt>
      <trkpt lat="45.00082" lon="6.44637">
        <ele>2160</ele>
        <time>2021-03-11T09:52:38Z</time>
      </trkpt>
      <trkpt lat="45.00081" lon="6.44635">
        <ele>2160</ele>
        <time>2021-03-11T09:52:41Z</time>
      </trkpt>
      <trkpt lat="45.0008" lon="6.44633">
        <ele>2160</ele>
        <time>2021-03-11T09:52:44Z</time>
      </trkpt>
      <trkpt lat="45.0008" lon="6.4463">
        <ele>2160</ele>
        <time>2021-03-11T09:52:47Z</time>
      </trkpt>
      <trkpt lat="45.00079" lon="6.44626">
        <ele>2160</ele>
        <time>2021-03-11T09:52:52Z</time>
      </trkpt>
      <trkpt lat="45.00077" lon="6.44624">
        <ele>2161</ele>
        <time>2021-03-11T09:52:55Z</time>
      </trkpt>
      <trkpt lat="45.00077" lon="6.44622">
        <ele>2161</ele>
        <time>2021-03-11T09:52:59Z</time>
      </trkpt>
      <trkpt lat="45.00076" lon="6.44619">
        <ele>2161</ele>
        <time>2021-03-11T09:53:03Z</time>
      </trkpt>
      <trkpt lat="45.00075" lon="6.44617">
        <ele>2162</ele>
        <time>2021-03-11T09:53:07Z</time>
      </trkpt>
      <trkpt lat="45.00074" lon="6.44616">
        <ele>2162</ele>
        <time>2021-03-11T09:53:10Z</time>
      </trkpt>
      <trkpt lat="45.00073" lon="6.44613">
        <ele>2163</ele>
        <time>2021-03-11T09:53:14Z</time>
      </trkpt>
      <trkpt lat="45.00072" lon="6.44611">
        <ele>2163</ele>
        <time>2021-03-11T09:53:18Z</time>
      </trkpt>
      <trkpt lat="45.00071" lon="6.44608">
        <ele>2163</ele>
        <time>2021-03-11T09:53:22Z</time>
      </trkpt>
      <trkpt lat="45.0007" lon="6.44606">
        <ele>2164</ele>
        <time>2021-03-11T09:53:25Z</time>
      </trkpt>
      <trkpt lat="45.00069" lon="6.44604">
        <ele>2164</ele>
        <time>2021-03-11T09:53:29Z</time>
      </trkpt>
      <trkpt lat="45.00068" lon="6.44602">
        <ele>2164</ele>
        <time>2021-03-11T09:53:33Z</time>
      </trkpt>
      <trkpt lat="45.00068" lon="6.44599">
        <ele>2166</ele>
        <time>2021-03-11T09:53:37Z</time>
      </trkpt>
      <trkpt lat="45.00066" lon="6.44596">
        <ele>2166</ele>
        <time>2021-03-11T09:53:42Z</time>
      </trkpt>
      <trkpt lat="45.00065" lon="6.44593">
        <ele>2167</ele>
        <time>2021-03-11T09:53:48Z</time>
      </trkpt>
      <trkpt lat="45.00062" lon="6.44584">
        <ele>2169</ele>
        <time>2021-03-11T09:54:01Z</time>
      </trkpt>
      <trkpt lat="45.00061" lon="6.44582">
        <ele>2170</ele>
        <time>2021-03-11T09:54:05Z</time>
      </trkpt>
      <trkpt lat="45.0006" lon="6.44579">
        <ele>2170</ele>
        <time>2021-03-11T09:54:09Z</time>
      </trkpt>
      <trkpt lat="45.00058" lon="6.44576">
        <ele>2170</ele>
        <time>2021-03-11T09:54:13Z</time>
      </trkpt>
      <trkpt lat="45.00057" lon="6.44573">
        <ele>2171</ele>
        <time>2021-03-11T09:54:18Z</time>
      </trkpt>
      <trkpt lat="45.00056" lon="6.4457">
        <ele>2173</ele>
        <time>2021-03-11T09:54:24Z</time>
      </trkpt>
      <trkpt lat="45.00055" lon="6.44567">
        <ele>2173</ele>
        <time>2021-03-11T09:54:28Z</time>
      </trkpt>
      <trkpt lat="45.00054" lon="6.44565">
        <ele>2173</ele>
        <time>2021-03-11T09:54:31Z</time>
      </trkpt>
      <trkpt lat="45.00054" lon="6.44563">
        <ele>2173</ele>
        <time>2021-03-11T09:54:34Z</time>
      </trkpt>
      <trkpt lat="45.00052" lon="6.44558">
        <ele>2173</ele>
        <time>2021-03-11T09:54:42Z</time>
      </trkpt>
      <trkpt lat="45.00051" lon="6.44556">
        <ele>2174</ele>
        <time>2021-03-11T09:54:46Z</time>
      </trkpt>
      <trkpt lat="45.0005" lon="6.44553">
        <ele>2174</ele>
        <time>2021-03-11T09:54:53Z</time>
      </trkpt>
      <trkpt lat="45.00048" lon="6.44551">
        <ele>2176</ele>
        <time>2021-03-11T09:54:57Z</time>
      </trkpt>
      <trkpt lat="45.00048" lon="6.44549">
        <ele>2176</ele>
        <time>2021-03-11T09:55:01Z</time>
      </trkpt>
      <trkpt lat="45.00047" lon="6.44546">
        <ele>2177</ele>
        <time>2021-03-11T09:55:06Z</time>
      </trkpt>
      <trkpt lat="45.00045" lon="6.44542">
        <ele>2177</ele>
        <time>2021-03-11T09:55:13Z</time>
      </trkpt>
      <trkpt lat="45.00043" lon="6.44538">
        <ele>2178</ele>
        <time>2021-03-11T09:55:21Z</time>
      </trkpt>
      <trkpt lat="45.00042" lon="6.44534">
        <ele>2179</ele>
        <time>2021-03-11T09:55:29Z</time>
      </trkpt>
      <trkpt lat="45.0004" lon="6.44529">
        <ele>2181</ele>
        <time>2021-03-11T09:55:37Z</time>
      </trkpt>
      <trkpt lat="45.00038" lon="6.44525">
        <ele>2183</ele>
        <time>2021-03-11T09:55:46Z</time>
      </trkpt>
      <trkpt lat="45.00035" lon="6.4452">
        <ele>2184</ele>
        <time>2021-03-11T09:55:56Z</time>
      </trkpt>
      <trkpt lat="45.00031" lon="6.44516">
        <ele>2185</ele>
        <time>2021-03-11T09:56:08Z</time>
      </trkpt>
      <trkpt lat="45.00027" lon="6.44512">
        <ele>2187</ele>
        <time>2021-03-11T09:56:20Z</time>
      </trkpt>
      <trkpt lat="45.00027" lon="6.44505">
        <ele>2189</ele>
        <time>2021-03-11T09:56:30Z</time>
      </trkpt>
      <trkpt lat="45.00025" lon="6.44497">
        <ele>2190</ele>
        <time>2021-03-11T09:56:41Z</time>
      </trkpt>
      <trkpt lat="45.00023" lon="6.44491">
        <ele>2190</ele>
        <time>2021-03-11T09:56:50Z</time>
      </trkpt>
      <trkpt lat="45.00022" lon="6.44484">
        <ele>2192</ele>
        <time>2021-03-11T09:56:58Z</time>
      </trkpt>
      <trkpt lat="45.00022" lon="6.44476">
        <ele>2193</ele>
        <time>2021-03-11T09:57:09Z</time>
      </trkpt>
      <trkpt lat="45.0002" lon="6.44471">
        <ele>2195</ele>
        <time>2021-03-11T09:57:17Z</time>
      </trkpt>
      <trkpt lat="45.00018" lon="6.44465">
        <ele>2194</ele>
        <time>2021-03-11T09:57:25Z</time>
      </trkpt>
      <trkpt lat="45.00016" lon="6.44461">
        <ele>2194</ele>
        <time>2021-03-11T09:57:32Z</time>
      </trkpt>
      <trkpt lat="45.00014" lon="6.44455">
        <ele>2195</ele>
        <time>2021-03-11T09:57:39Z</time>
      </trkpt>
      <trkpt lat="45.00013" lon="6.44449">
        <ele>2198</ele>
        <time>2021-03-11T09:57:46Z</time>
      </trkpt>
      <trkpt lat="45.00013" lon="6.44443">
        <ele>2198</ele>
        <time>2021-03-11T09:57:53Z</time>
      </trkpt>
      <trkpt lat="45.00013" lon="6.44437">
        <ele>2199</ele>
        <time>2021-03-11T09:58:01Z</time>
      </trkpt>
      <trkpt lat="45.00013" lon="6.44431">
        <ele>2201</ele>
        <time>2021-03-11T09:58:09Z</time>
      </trkpt>
      <trkpt lat="45.00013" lon="6.44425">
        <ele>2202</ele>
        <time>2021-03-11T09:58:18Z</time>
      </trkpt>
      <trkpt lat="45.0001" lon="6.44419">
        <ele>2204</ele>
        <time>2021-03-11T09:58:28Z</time>
      </trkpt>
      <trkpt lat="45.00008" lon="6.44414">
        <ele>2205</ele>
        <time>2021-03-11T09:58:37Z</time>
      </trkpt>
      <trkpt lat="45.00005" lon="6.44409">
        <ele>2206</ele>
        <time>2021-03-11T09:58:46Z</time>
      </trkpt>
      <trkpt lat="45.00003" lon="6.44404">
        <ele>2207</ele>
        <time>2021-03-11T09:58:54Z</time>
      </trkpt>
      <trkpt lat="45" lon="6.44399">
        <ele>2207</ele>
        <time>2021-03-11T09:59:02Z</time>
      </trkpt>
      <trkpt lat="44.99997" lon="6.44394">
        <ele>2208</ele>
        <time>2021-03-11T09:59:10Z</time>
      </trkpt>
      <trkpt lat="44.99995" lon="6.44386">
        <ele>2209</ele>
        <time>2021-03-11T09:59:23Z</time>
      </trkpt>
      <trkpt lat="44.99991" lon="6.44378">
        <ele>2211</ele>
        <time>2021-03-11T09:59:34Z</time>
      </trkpt>
      <trkpt lat="44.99989" lon="6.44374">
        <ele>2211</ele>
        <time>2021-03-11T09:59:41Z</time>
      </trkpt>
      <trkpt lat="44.99987" lon="6.44369">
        <ele>2212</ele>
        <time>2021-03-11T09:59:48Z</time>
      </trkpt>
      <trkpt lat="44.99985" lon="6.44364">
        <ele>2213</ele>
        <time>2021-03-11T09:59:56Z</time>
      </trkpt>
      <trkpt lat="44.99984" lon="6.44358">
        <ele>2213</ele>
        <time>2021-03-11T10:00:03Z</time>
      </trkpt>
      <trkpt lat="44.99982" lon="6.44353">
        <ele>2214</ele>
        <time>2021-03-11T10:00:11Z</time>
      </trkpt>
      <trkpt lat="44.9998" lon="6.44349">
        <ele>2215</ele>
        <time>2021-03-11T10:00:21Z</time>
      </trkpt>
      <trkpt lat="44.99978" lon="6.44342">
        <ele>2217</ele>
        <time>2021-03-11T10:00:36Z</time>
      </trkpt>
      <trkpt lat="44.99977" lon="6.44335">
        <ele>2220</ele>
        <time>2021-03-11T10:00:52Z</time>
      </trkpt>
      <trkpt lat="44.99976" lon="6.44328">
        <ele>2223</ele>
        <time>2021-03-11T10:01:06Z</time>
      </trkpt>
      <trkpt lat="44.99975" lon="6.44323">
        <ele>2224</ele>
        <time>2021-03-11T10:01:16Z</time>
      </trkpt>
      <trkpt lat="44.99974" lon="6.44316">
        <ele>2225</ele>
        <time>2021-03-11T10:01:26Z</time>
      </trkpt>
      <trkpt lat="44.99973" lon="6.44311">
        <ele>2227</ele>
        <time>2021-03-11T10:01:37Z</time>
      </trkpt>
      <trkpt lat="44.99973" lon="6.44306">
        <ele>2228</ele>
        <time>2021-03-11T10:01:47Z</time>
      </trkpt>
      <trkpt lat="44.99971" lon="6.44295">
        <ele>2230</ele>
        <time>2021-03-11T10:02:05Z</time>
      </trkpt>
      <trkpt lat="44.99969" lon="6.44286">
        <ele>2232</ele>
        <time>2021-03-11T10:02:27Z</time>
      </trkpt>
      <trkpt lat="44.99968" lon="6.44283">
        <ele>2232</ele>
        <time>2021-03-11T10:02:32Z</time>
      </trkpt>
      <trkpt lat="44.99966" lon="6.44273">
        <ele>2236</ele>
        <time>2021-03-11T10:02:55Z</time>
      </trkpt>
      <trkpt lat="44.99965" lon="6.44266">
        <ele>2237</ele>
        <time>2021-03-11T10:03:10Z</time>
      </trkpt>
      <trkpt lat="44.99964" lon="6.44257">
        <ele>2239</ele>
        <time>2021-03-11T10:03:36Z</time>
      </trkpt>
      <trkpt lat="44.99964" lon="6.44246">
        <ele>2241</ele>
        <time>2021-03-11T10:03:49Z</time>
      </trkpt>
      <trkpt lat="44.99965" lon="6.44236">
        <ele>2242</ele>
        <time>2021-03-11T10:04:03Z</time>
      </trkpt>
      <trkpt lat="44.99967" lon="6.4423">
        <ele>2246</ele>
        <time>2021-03-11T10:04:13Z</time>
      </trkpt>
      <trkpt lat="44.99968" lon="6.44225">
        <ele>2247</ele>
        <time>2021-03-11T10:04:22Z</time>
      </trkpt>
      <trkpt lat="44.99971" lon="6.44217">
        <ele>2250</ele>
        <time>2021-03-11T10:04:39Z</time>
      </trkpt>
      <trkpt lat="44.99973" lon="6.44213">
        <ele>2251</ele>
        <time>2021-03-11T10:04:48Z</time>
      </trkpt>
      <trkpt lat="44.99976" lon="6.44205">
        <ele>2252</ele>
        <time>2021-03-11T10:05:02Z</time>
      </trkpt>
      <trkpt lat="44.99976" lon="6.44198">
        <ele>2255</ele>
        <time>2021-03-11T10:05:18Z</time>
      </trkpt>
      <trkpt lat="44.99976" lon="6.44191">
        <ele>2258</ele>
        <time>2021-03-11T10:05:37Z</time>
      </trkpt>
      <trkpt lat="44.99975" lon="6.44183">
        <ele>2258</ele>
        <time>2021-03-11T10:05:51Z</time>
      </trkpt>
      <trkpt lat="44.99972" lon="6.44175">
        <ele>2258</ele>
        <time>2021-03-11T10:06:13Z</time>
      </trkpt>
      <trkpt lat="44.99969" lon="6.44167">
        <ele>2262</ele>
        <time>2021-03-11T10:06:25Z</time>
      </trkpt>
      <trkpt lat="44.99964" lon="6.44169">
        <ele>2265</ele>
        <time>2021-03-11T10:06:56Z</time>
      </trkpt>
      <trkpt lat="44.9996" lon="6.44175">
        <ele>2266</ele>
        <time>2021-03-11T10:07:11Z</time>
      </trkpt>
      <trkpt lat="44.99955" lon="6.44178">
        <ele>2270</ele>
        <time>2021-03-11T10:07:39Z</time>
      </trkpt>
      <trkpt lat="44.99949" lon="6.4418">
        <ele>2272</ele>
        <time>2021-03-11T10:07:54Z</time>
      </trkpt>
      <trkpt lat="44.99944" lon="6.44181">
        <ele>2272</ele>
        <time>2021-03-11T10:08:11Z</time>
      </trkpt>
      <trkpt lat="44.99939" lon="6.44181">
        <ele>2274</ele>
        <time>2021-03-11T10:08:24Z</time>
      </trkpt>
      <trkpt lat="44.99933" lon="6.44182">
        <ele>2275</ele>
        <time>2021-03-11T10:08:35Z</time>
      </trkpt>
      <trkpt lat="44.99928" lon="6.44185">
        <ele>2277</ele>
        <time>2021-03-11T10:08:48Z</time>
      </trkpt>
      <trkpt lat="44.99923" lon="6.4419">
        <ele>2278</ele>
        <time>2021-03-11T10:09:02Z</time>
      </trkpt>
      <trkpt lat="44.99917" lon="6.44193">
        <ele>2282</ele>
        <time>2021-03-11T10:09:19Z</time>
      </trkpt>
      <trkpt lat="44.99911" lon="6.44191">
        <ele>2285</ele>
        <time>2021-03-11T10:09:48Z</time>
      </trkpt>
      <trkpt lat="44.9991" lon="6.44186">
        <ele>2287</ele>
        <time>2021-03-11T10:10:00Z</time>
      </trkpt>
      <trkpt lat="44.99908" lon="6.4418">
        <ele>2288</ele>
        <time>2021-03-11T10:10:11Z</time>
      </trkpt>
      <trkpt lat="44.99908" lon="6.44175">
        <ele>2290</ele>
        <time>2021-03-11T10:10:19Z</time>
      </trkpt>
      <trkpt lat="44.99907" lon="6.4417">
        <ele>2291</ele>
        <time>2021-03-11T10:10:28Z</time>
      </trkpt>
      <trkpt lat="44.99905" lon="6.44164">
        <ele>2291</ele>
        <time>2021-03-11T10:10:39Z</time>
      </trkpt>
      <trkpt lat="44.99904" lon="6.44158">
        <ele>2293</ele>
        <time>2021-03-11T10:10:48Z</time>
      </trkpt>
      <trkpt lat="44.99903" lon="6.44154">
        <ele>2295</ele>
        <time>2021-03-11T10:10:56Z</time>
      </trkpt>
      <trkpt lat="44.99902" lon="6.4415">
        <ele>2296</ele>
        <time>2021-03-11T10:11:04Z</time>
      </trkpt>
      <trkpt lat="44.99901" lon="6.44145">
        <ele>2296</ele>
        <time>2021-03-11T10:11:13Z</time>
      </trkpt>
      <trkpt lat="44.99899" lon="6.44136">
        <ele>2299</ele>
        <time>2021-03-11T10:11:31Z</time>
      </trkpt>
      <trkpt lat="44.99897" lon="6.4413">
        <ele>2299</ele>
        <time>2021-03-11T10:11:40Z</time>
      </trkpt>
      <trkpt lat="44.99897" lon="6.44121">
        <ele>2301</ele>
        <time>2021-03-11T10:11:51Z</time>
      </trkpt>
      <trkpt lat="44.99897" lon="6.44116">
        <ele>2302</ele>
        <time>2021-03-11T10:12:05Z</time>
      </trkpt>
      <trkpt lat="44.99898" lon="6.4411">
        <ele>2304</ele>
        <time>2021-03-11T10:12:16Z</time>
      </trkpt>
      <trkpt lat="44.99901" lon="6.44105">
        <ele>2306</ele>
        <time>2021-03-11T10:12:27Z</time>
      </trkpt>
      <trkpt lat="44.99904" lon="6.44099">
        <ele>2308</ele>
        <time>2021-03-11T10:12:37Z</time>
      </trkpt>
      <trkpt lat="44.99907" lon="6.44095">
        <ele>2309</ele>
        <time>2021-03-11T10:12:55Z</time>
      </trkpt>
      <trkpt lat="44.99909" lon="6.44091">
        <ele>2311</ele>
        <time>2021-03-11T10:13:11Z</time>
      </trkpt>
      <trkpt lat="44.99911" lon="6.44087">
        <ele>2310</ele>
        <time>2021-03-11T10:13:16Z</time>
      </trkpt>
      <trkpt lat="44.99909" lon="6.44083">
        <ele>2312</ele>
        <time>2021-03-11T10:13:26Z</time>
      </trkpt>
      <trkpt lat="44.99907" lon="6.44079">
        <ele>2313</ele>
        <time>2021-03-11T10:13:42Z</time>
      </trkpt>
      <trkpt lat="44.99907" lon="6.44075">
        <ele>2314</ele>
        <time>2021-03-11T10:15:11Z</time>
      </trkpt>
      <trkpt lat="44.99909" lon="6.44067">
        <ele>2315</ele>
        <time>2021-03-11T10:32:14Z</time>
      </trkpt>
      <trkpt lat="44.99909" lon="6.44058">
        <ele>2317</ele>
        <time>2021-03-11T10:32:32Z</time>
      </trkpt>
      <trkpt lat="44.99908" lon="6.44051">
        <ele>2317</ele>
        <time>2021-03-11T10:32:42Z</time>
      </trkpt>
      <trkpt lat="44.99906" lon="6.44044">
        <ele>2320</ele>
        <time>2021-03-11T10:32:54Z</time>
      </trkpt>
      <trkpt lat="44.99905" lon="6.44035">
        <ele>2322</ele>
        <time>2021-03-11T10:33:09Z</time>
      </trkpt>
      <trkpt lat="44.99904" lon="6.44029">
        <ele>2323</ele>
        <time>2021-03-11T10:33:18Z</time>
      </trkpt>
      <trkpt lat="44.99901" lon="6.44023">
        <ele>2325</ele>
        <time>2021-03-11T10:33:27Z</time>
      </trkpt>
      <trkpt lat="44.99901" lon="6.44015">
        <ele>2327</ele>
        <time>2021-03-11T10:33:35Z</time>
      </trkpt>
      <trkpt lat="44.99898" lon="6.4401">
        <ele>2329</ele>
        <time>2021-03-11T10:33:45Z</time>
      </trkpt>
      <trkpt lat="44.99894" lon="6.44004">
        <ele>2332</ele>
        <time>2021-03-11T10:34:14Z</time>
      </trkpt>
      <trkpt lat="44.99891" lon="6.43999">
        <ele>2333</ele>
        <time>2021-03-11T10:34:24Z</time>
      </trkpt>
      <trkpt lat="44.99887" lon="6.43993">
        <ele>2334</ele>
        <time>2021-03-11T10:34:37Z</time>
      </trkpt>
      <trkpt lat="44.99885" lon="6.43986">
        <ele>2338</ele>
        <time>2021-03-11T10:35:06Z</time>
      </trkpt>
      <trkpt lat="44.99882" lon="6.43973">
        <ele>2338</ele>
        <time>2021-03-11T10:35:21Z</time>
      </trkpt>
      <trkpt lat="44.99881" lon="6.43959">
        <ele>2340</ele>
        <time>2021-03-11T10:35:38Z</time>
      </trkpt>
      <trkpt lat="44.99879" lon="6.43945">
        <ele>2343</ele>
        <time>2021-03-11T10:36:02Z</time>
      </trkpt>
      <trkpt lat="44.99878" lon="6.43931">
        <ele>2346</ele>
        <time>2021-03-11T10:36:16Z</time>
      </trkpt>
      <trkpt lat="44.99875" lon="6.43918">
        <ele>2349</ele>
        <time>2021-03-11T10:36:38Z</time>
      </trkpt>
      <trkpt lat="44.99873" lon="6.43905">
        <ele>2354</ele>
        <time>2021-03-11T10:37:07Z</time>
      </trkpt>
      <trkpt lat="44.99873" lon="6.43891">
        <ele>2357</ele>
        <time>2021-03-11T10:37:24Z</time>
      </trkpt>
      <trkpt lat="44.99871" lon="6.43882">
        <ele>2359</ele>
        <time>2021-03-11T10:37:51Z</time>
      </trkpt>
      <trkpt lat="44.99864" lon="6.43886">
        <ele>2362</ele>
        <time>2021-03-11T10:38:19Z</time>
      </trkpt>
      <trkpt lat="44.99855" lon="6.4389">
        <ele>2367</ele>
        <time>2021-03-11T10:38:46Z</time>
      </trkpt>
      <trkpt lat="44.99848" lon="6.43893">
        <ele>2368</ele>
        <time>2021-03-11T10:39:05Z</time>
      </trkpt>
      <trkpt lat="44.99842" lon="6.43885">
        <ele>2372</ele>
        <time>2021-03-11T10:39:39Z</time>
      </trkpt>
      <trkpt lat="44.99841" lon="6.43874">
        <ele>2374</ele>
        <time>2021-03-11T10:40:02Z</time>
      </trkpt>
      <trkpt lat="44.99844" lon="6.4386">
        <ele>2377</ele>
        <time>2021-03-11T10:40:19Z</time>
      </trkpt>
      <trkpt lat="44.99844" lon="6.43848">
        <ele>2381</ele>
        <time>2021-03-11T10:40:34Z</time>
      </trkpt>
      <trkpt lat="44.99844" lon="6.43836">
        <ele>2384</ele>
        <time>2021-03-11T10:41:02Z</time>
      </trkpt>
      <trkpt lat="44.99836" lon="6.43841">
        <ele>2385</ele>
        <time>2021-03-11T10:41:30Z</time>
      </trkpt>
      <trkpt lat="44.9983" lon="6.43843">
        <ele>2386</ele>
        <time>2021-03-11T10:41:37Z</time>
      </trkpt>
      <trkpt lat="44.99823" lon="6.43847">
        <ele>2390</ele>
        <time>2021-03-11T10:41:54Z</time>
      </trkpt>
      <trkpt lat="44.99818" lon="6.43847">
        <ele>2393</ele>
        <time>2021-03-11T10:42:18Z</time>
      </trkpt>
      <trkpt lat="44.99812" lon="6.4385">
        <ele>2395</ele>
        <time>2021-03-11T10:42:36Z</time>
      </trkpt>
      <trkpt lat="44.99802" lon="6.4385">
        <ele>2398</ele>
        <time>2021-03-11T10:43:11Z</time>
      </trkpt>
      <trkpt lat="44.99793" lon="6.4385">
        <ele>2401</ele>
        <time>2021-03-11T10:43:31Z</time>
      </trkpt>
      <trkpt lat="44.99783" lon="6.4385">
        <ele>2405</ele>
        <time>2021-03-11T10:44:10Z</time>
      </trkpt>
      <trkpt lat="44.99772" lon="6.43849">
        <ele>2411</ele>
        <time>2021-03-11T10:44:38Z</time>
      </trkpt>
      <trkpt lat="44.99762" lon="6.43849">
        <ele>2413</ele>
        <time>2021-03-11T10:45:03Z</time>
      </trkpt>
      <trkpt lat="44.99752" lon="6.43848">
        <ele>2417</ele>
        <time>2021-03-11T10:45:28Z</time>
      </trkpt>
      <trkpt lat="44.99742" lon="6.43848">
        <ele>2420</ele>
        <time>2021-03-11T10:46:01Z</time>
      </trkpt>
      <trkpt lat="44.99732" lon="6.43846">
        <ele>2424</ele>
        <time>2021-03-11T10:46:32Z</time>
      </trkpt>
      <trkpt lat="44.99722" lon="6.43846">
        <ele>2430</ele>
        <time>2021-03-11T10:46:55Z</time>
      </trkpt>
      <trkpt lat="44.99712" lon="6.43842">
        <ele>2432</ele>
        <time>2021-03-11T10:47:19Z</time>
      </trkpt>
      <trkpt lat="44.99709" lon="6.43839">
        <ele>2434</ele>
        <time>2021-03-11T10:47:31Z</time>
      </trkpt>
      <trkpt lat="44.99706" lon="6.43837">
        <ele>2435</ele>
        <time>2021-03-11T10:47:40Z</time>
      </trkpt>
      <trkpt lat="44.99703" lon="6.43837">
        <ele>2436</ele>
        <time>2021-03-11T10:47:49Z</time>
      </trkpt>
      <trkpt lat="44.997" lon="6.43837">
        <ele>2438</ele>
        <time>2021-03-11T10:47:59Z</time>
      </trkpt>
      <trkpt lat="44.99694" lon="6.43836">
        <ele>2441</ele>
        <time>2021-03-11T10:48:15Z</time>
      </trkpt>
      <trkpt lat="44.99689" lon="6.43835">
        <ele>2442</ele>
        <time>2021-03-11T10:48:30Z</time>
      </trkpt>
      <trkpt lat="44.99682" lon="6.43835">
        <ele>2445</ele>
        <time>2021-03-11T10:48:46Z</time>
      </trkpt>
      <trkpt lat="44.99677" lon="6.43836">
        <ele>2446</ele>
        <time>2021-03-11T10:48:56Z</time>
      </trkpt>
      <trkpt lat="44.99672" lon="6.43834">
        <ele>2447</ele>
        <time>2021-03-11T10:49:11Z</time>
      </trkpt>
      <trkpt lat="44.99667" lon="6.43833">
        <ele>2450</ele>
        <time>2021-03-11T10:49:32Z</time>
      </trkpt>
      <trkpt lat="44.99669" lon="6.43825">
        <ele>2452</ele>
        <time>2021-03-11T10:49:51Z</time>
      </trkpt>
      <trkpt lat="44.99669" lon="6.43817">
        <ele>2455</ele>
        <time>2021-03-11T10:50:19Z</time>
      </trkpt>
      <trkpt lat="44.9967" lon="6.43809">
        <ele>2458</ele>
        <time>2021-03-11T10:50:36Z</time>
      </trkpt>
      <trkpt lat="44.99671" lon="6.43801">
        <ele>2459</ele>
        <time>2021-03-11T10:50:51Z</time>
      </trkpt>
      <trkpt lat="44.99672" lon="6.43794">
        <ele>2462</ele>
        <time>2021-03-11T10:51:06Z</time>
      </trkpt>
      <trkpt lat="44.99667" lon="6.43792">
        <ele>2464</ele>
        <time>2021-03-11T10:51:34Z</time>
      </trkpt>
      <trkpt lat="44.9966" lon="6.4379">
        <ele>2466</ele>
        <time>2021-03-11T10:51:53Z</time>
      </trkpt>
      <trkpt lat="44.99655" lon="6.43789">
        <ele>2468</ele>
        <time>2021-03-11T10:52:08Z</time>
      </trkpt>
      <trkpt lat="44.99649" lon="6.4379">
        <ele>2471</ele>
        <time>2021-03-11T10:52:33Z</time>
      </trkpt>
      <trkpt lat="44.99649" lon="6.43781">
        <ele>2473</ele>
        <time>2021-03-11T10:52:52Z</time>
      </trkpt>
      <trkpt lat="44.99651" lon="6.43773">
        <ele>2475</ele>
        <time>2021-03-11T10:53:05Z</time>
      </trkpt>
      <trkpt lat="44.99653" lon="6.43766">
        <ele>2477</ele>
        <time>2021-03-11T10:53:18Z</time>
      </trkpt>
      <trkpt lat="44.99655" lon="6.43759">
        <ele>2478</ele>
        <time>2021-03-11T10:53:33Z</time>
      </trkpt>
      <trkpt lat="44.99657" lon="6.43753">
        <ele>2481</ele>
        <time>2021-03-11T10:54:13Z</time>
      </trkpt>
      <trkpt lat="44.99661" lon="6.43746">
        <ele>2483</ele>
        <time>2021-03-11T10:54:24Z</time>
      </trkpt>
      <trkpt lat="44.99665" lon="6.43739">
        <ele>2484</ele>
        <time>2021-03-11T10:55:03Z</time>
      </trkpt>
      <trkpt lat="44.9966" lon="6.43733">
        <ele>2487</ele>
        <time>2021-03-11T10:55:48Z</time>
      </trkpt>
      <trkpt lat="44.99653" lon="6.43735">
        <ele>2488</ele>
        <time>2021-03-11T10:56:48Z</time>
      </trkpt>
      <trkpt lat="44.99646" lon="6.43732">
        <ele>2491</ele>
        <time>2021-03-11T10:57:06Z</time>
      </trkpt>
      <trkpt lat="44.9964" lon="6.43732">
        <ele>2494</ele>
        <time>2021-03-11T10:57:34Z</time>
      </trkpt>
      <trkpt lat="44.99636" lon="6.43731">
        <ele>2495</ele>
        <time>2021-03-11T10:58:20Z</time>
      </trkpt>
      <trkpt lat="44.99631" lon="6.43732">
        <ele>2497</ele>
        <time>2021-03-11T10:58:28Z</time>
      </trkpt>
      <trkpt lat="44.99628" lon="6.43732">
        <ele>2497</ele>
        <time>2021-03-11T10:58:35Z</time>
      </trkpt>
      <trkpt lat="44.99624" lon="6.43732">
        <ele>2497</ele>
        <time>2021-03-11T10:58:43Z</time>
      </trkpt>
      <trkpt lat="44.9962" lon="6.43734">
        <ele>2499</ele>
        <time>2021-03-11T10:58:52Z</time>
      </trkpt>
      <trkpt lat="44.99615" lon="6.43736">
        <ele>2502</ele>
        <time>2021-03-11T10:59:06Z</time>
      </trkpt>
      <trkpt lat="44.99611" lon="6.43737">
        <ele>2503</ele>
        <time>2021-03-11T10:59:21Z</time>
      </trkpt>
      <trkpt lat="44.99608" lon="6.43741">
        <ele>2505</ele>
        <time>2021-03-11T10:59:29Z</time>
      </trkpt>
      <trkpt lat="44.99605" lon="6.43745">
        <ele>2506</ele>
        <time>2021-03-11T10:59:43Z</time>
      </trkpt>
      <trkpt lat="44.99602" lon="6.43738">
        <ele>2510</ele>
        <time>2021-03-11T11:00:01Z</time>
      </trkpt>
      <trkpt lat="44.996" lon="6.43729">
        <ele>2512</ele>
        <time>2021-03-11T11:00:17Z</time>
      </trkpt>
      <trkpt lat="44.996" lon="6.4372">
        <ele>2512</ele>
        <time>2021-03-11T11:00:32Z</time>
      </trkpt>
      <trkpt lat="44.996" lon="6.43715">
        <ele>2513</ele>
        <time>2021-03-11T11:00:40Z</time>
      </trkpt>
      <trkpt lat="44.99601" lon="6.4371">
        <ele>2514</ele>
        <time>2021-03-11T11:00:48Z</time>
      </trkpt>
      <trkpt lat="44.99601" lon="6.43706">
        <ele>2517</ele>
        <time>2021-03-11T11:00:56Z</time>
      </trkpt>
      <trkpt lat="44.99602" lon="6.43702">
        <ele>2519</ele>
        <time>2021-03-11T11:01:07Z</time>
      </trkpt>
      <trkpt lat="44.99599" lon="6.43703">
        <ele>2519</ele>
        <time>2021-03-11T11:01:19Z</time>
      </trkpt>
      <trkpt lat="44.99595" lon="6.43704">
        <ele>2521</ele>
        <time>2021-03-11T11:01:28Z</time>
      </trkpt>
      <trkpt lat="44.9959" lon="6.43705">
        <ele>2521</ele>
        <time>2021-03-11T11:01:38Z</time>
      </trkpt>
      <trkpt lat="44.99587" lon="6.43707">
        <ele>2522</ele>
        <time>2021-03-11T11:01:47Z</time>
      </trkpt>
      <trkpt lat="44.99583" lon="6.43709">
        <ele>2523</ele>
        <time>2021-03-11T11:01:56Z</time>
      </trkpt>
      <trkpt lat="44.99576" lon="6.43714">
        <ele>2524</ele>
        <time>2021-03-11T11:02:10Z</time>
      </trkpt>
      <trkpt lat="44.99567" lon="6.43722">
        <ele>2529</ele>
        <time>2021-03-11T11:02:38Z</time>
      </trkpt>
      <trkpt lat="44.9956" lon="6.43713">
        <ele>2532</ele>
        <time>2021-03-11T11:03:08Z</time>
      </trkpt>
      <trkpt lat="44.99559" lon="6.43699">
        <ele>2536</ele>
        <time>2021-03-11T11:03:34Z</time>
      </trkpt>
      <trkpt lat="44.99549" lon="6.437">
        <ele>2538</ele>
        <time>2021-03-11T11:04:11Z</time>
      </trkpt>
      <trkpt lat="44.9954" lon="6.43706">
        <ele>2541</ele>
        <time>2021-03-11T11:04:28Z</time>
      </trkpt>
      <trkpt lat="44.99535" lon="6.43715">
        <ele>2543</ele>
        <time>2021-03-11T11:04:53Z</time>
      </trkpt>
      <trkpt lat="44.99535" lon="6.43729">
        <ele>2546</ele>
        <time>2021-03-11T11:05:14Z</time>
      </trkpt>
      <trkpt lat="44.99537" lon="6.43741">
        <ele>2548</ele>
        <time>2021-03-11T11:05:32Z</time>
      </trkpt>
      <trkpt lat="44.99527" lon="6.43743">
        <ele>2553</ele>
        <time>2021-03-11T11:07:31Z</time>
      </trkpt>
      <trkpt lat="44.99517" lon="6.43746">
        <ele>2556</ele>
        <time>2021-03-11T11:07:48Z</time>
      </trkpt>
      <trkpt lat="44.99512" lon="6.43737">
        <ele>2559</ele>
        <time>2021-03-11T11:08:05Z</time>
      </trkpt>
      <trkpt lat="44.99507" lon="6.43723">
        <ele>2562</ele>
        <time>2021-03-11T11:08:27Z</time>
      </trkpt>
      <trkpt lat="44.99499" lon="6.43723">
        <ele>2565</ele>
        <time>2021-03-11T11:09:06Z</time>
      </trkpt>
      <trkpt lat="44.99499" lon="6.43717">
        <ele>2567</ele>
        <time>2021-03-11T11:19:06Z</time>
      </trkpt>
      <trkpt lat="44.99503" lon="6.4372">
        <ele>2564</ele>
        <time>2021-03-11T11:26:48Z</time>
      </trkpt>
      <trkpt lat="44.995" lon="6.43721">
        <ele>2567</ele>
        <time>2021-03-11T11:42:01Z</time>
      </trkpt>
      <trkpt lat="44.99503" lon="6.43721">
        <ele>2566</ele>
        <time>2021-03-11T11:45:55Z</time>
      </trkpt>
      <trkpt lat="44.99498" lon="6.43724">
        <ele>2567</ele>
        <time>2021-03-11T11:48:17Z</time>
      </trkpt>
      <trkpt lat="44.99487" lon="6.43722">
        <ele>2567</ele>
        <time>2021-03-11T11:49:52Z</time>
      </trkpt>
      <trkpt lat="44.99477" lon="6.43722">
        <ele>2570</ele>
        <time>2021-03-11T11:50:09Z</time>
      </trkpt>
      <trkpt lat="44.99472" lon="6.43719">
        <ele>2572</ele>
        <time>2021-03-11T11:50:21Z</time>
      </trkpt>
      <trkpt lat="44.99469" lon="6.43711">
        <ele>2574</ele>
        <time>2021-03-11T11:50:33Z</time>
      </trkpt>
      <trkpt lat="44.99463" lon="6.43704">
        <ele>2577</ele>
        <time>2021-03-11T11:50:50Z</time>
      </trkpt>
      <trkpt lat="44.99454" lon="6.43697">
        <ele>2580</ele>
        <time>2021-03-11T11:51:05Z</time>
      </trkpt>
      <trkpt lat="44.99444" lon="6.43698">
        <ele>2582</ele>
        <time>2021-03-11T11:51:22Z</time>
      </trkpt>
      <trkpt lat="44.99436" lon="6.437">
        <ele>2585</ele>
        <time>2021-03-11T11:51:38Z</time>
      </trkpt>
      <trkpt lat="44.99429" lon="6.43703">
        <ele>2586</ele>
        <time>2021-03-11T11:51:52Z</time>
      </trkpt>
      <trkpt lat="44.99426" lon="6.43706">
        <ele>2588</ele>
        <time>2021-03-11T11:52:01Z</time>
      </trkpt>
      <trkpt lat="44.99421" lon="6.43708">
        <ele>2589</ele>
        <time>2021-03-11T11:52:11Z</time>
      </trkpt>
      <trkpt lat="44.99413" lon="6.4371">
        <ele>2592</ele>
        <time>2021-03-11T11:52:29Z</time>
      </trkpt>
      <trkpt lat="44.99408" lon="6.43717">
        <ele>2595</ele>
        <time>2021-03-11T11:52:49Z</time>
      </trkpt>
      <trkpt lat="44.99403" lon="6.43719">
        <ele>2597</ele>
        <time>2021-03-11T11:53:05Z</time>
      </trkpt>
      <trkpt lat="44.99398" lon="6.43723">
        <ele>2598</ele>
        <time>2021-03-11T11:53:19Z</time>
      </trkpt>
      <trkpt lat="44.99393" lon="6.43725">
        <ele>2598</ele>
        <time>2021-03-11T11:53:32Z</time>
      </trkpt>
      <trkpt lat="44.99389" lon="6.43726">
        <ele>2599</ele>
        <time>2021-03-11T11:53:40Z</time>
      </trkpt>
      <trkpt lat="44.99386" lon="6.43727">
        <ele>2600</ele>
        <time>2021-03-11T11:53:50Z</time>
      </trkpt>
      <trkpt lat="44.99375" lon="6.43727">
        <ele>2605</ele>
        <time>2021-03-11T11:54:19Z</time>
      </trkpt>
      <trkpt lat="44.99373" lon="6.43728">
        <ele>2607</ele>
        <time>2021-03-11T11:54:25Z</time>
      </trkpt>
      <trkpt lat="44.99366" lon="6.43729">
        <ele>2608</ele>
        <time>2021-03-11T11:54:38Z</time>
      </trkpt>
      <trkpt lat="44.99361" lon="6.4372">
        <ele>2612</ele>
        <time>2021-03-11T11:55:27Z</time>
      </trkpt>
      <trkpt lat="44.99362" lon="6.43714">
        <ele>2614</ele>
        <time>2021-03-11T11:55:38Z</time>
      </trkpt>
      <trkpt lat="44.99365" lon="6.43707">
        <ele>2616</ele>
        <time>2021-03-11T11:55:49Z</time>
      </trkpt>
      <trkpt lat="44.99368" lon="6.437">
        <ele>2619</ele>
        <time>2021-03-11T11:56:05Z</time>
      </trkpt>
      <trkpt lat="44.99369" lon="6.43691">
        <ele>2621</ele>
        <time>2021-03-11T11:56:24Z</time>
      </trkpt>
      <trkpt lat="44.99373" lon="6.43678">
        <ele>2622</ele>
        <time>2021-03-11T11:56:53Z</time>
      </trkpt>
      <trkpt lat="44.99378" lon="6.43664">
        <ele>2624</ele>
        <time>2021-03-11T11:57:32Z</time>
      </trkpt>
      <trkpt lat="44.99369" lon="6.43666">
        <ele>2628</ele>
        <time>2021-03-11T11:58:27Z</time>
      </trkpt>
      <trkpt lat="44.9936" lon="6.4367">
        <ele>2630</ele>
        <time>2021-03-11T11:58:52Z</time>
      </trkpt>
      <trkpt lat="44.99353" lon="6.43672">
        <ele>2635</ele>
        <time>2021-03-11T11:59:14Z</time>
      </trkpt>
      <trkpt lat="44.99344" lon="6.43672">
        <ele>2636</ele>
        <time>2021-03-11T11:59:35Z</time>
      </trkpt>
      <trkpt lat="44.99339" lon="6.4366">
        <ele>2642</ele>
        <time>2021-03-11T12:01:07Z</time>
      </trkpt>
      <trkpt lat="44.99343" lon="6.43656">
        <ele>2643</ele>
        <time>2021-03-11T12:01:14Z</time>
      </trkpt>
      <trkpt lat="44.99346" lon="6.43651">
        <ele>2644</ele>
        <time>2021-03-11T12:01:26Z</time>
      </trkpt>
      <trkpt lat="44.99347" lon="6.43647">
        <ele>2646</ele>
        <time>2021-03-11T12:01:37Z</time>
      </trkpt>
      <trkpt lat="44.9935" lon="6.43644">
        <ele>2646</ele>
        <time>2021-03-11T12:01:43Z</time>
      </trkpt>
      <trkpt lat="44.99352" lon="6.43641">
        <ele>2648</ele>
        <time>2021-03-11T12:01:54Z</time>
      </trkpt>
      <trkpt lat="44.99349" lon="6.43641">
        <ele>2648</ele>
        <time>2021-03-11T12:02:14Z</time>
      </trkpt>
      <trkpt lat="44.99347" lon="6.43642">
        <ele>2650</ele>
        <time>2021-03-11T12:02:29Z</time>
      </trkpt>
      <trkpt lat="44.99342" lon="6.43643">
        <ele>2651</ele>
        <time>2021-03-11T12:02:48Z</time>
      </trkpt>
      <trkpt lat="44.99339" lon="6.43645">
        <ele>2651</ele>
        <time>2021-03-11T12:03:03Z</time>
      </trkpt>
      <trkpt lat="44.99337" lon="6.43646">
        <ele>2653</ele>
        <time>2021-03-11T12:03:08Z</time>
      </trkpt>
      <trkpt lat="44.99334" lon="6.43646">
        <ele>2653</ele>
        <time>2021-03-11T12:03:13Z</time>
      </trkpt>
      <trkpt lat="44.99329" lon="6.43649">
        <ele>2654</ele>
        <time>2021-03-11T12:03:27Z</time>
      </trkpt>
      <trkpt lat="44.99322" lon="6.43642">
        <ele>2663</ele>
        <time>2021-03-11T12:10:27Z</time>
      </trkpt>
      <trkpt lat="44.99312" lon="6.43637">
        <ele>2670</ele>
        <time>2021-03-11T12:11:28Z</time>
      </trkpt>
      <trkpt lat="44.99303" lon="6.43633">
        <ele>2678</ele>
        <time>2021-03-11T12:12:58Z</time>
      </trkpt>
      <trkpt lat="44.99296" lon="6.43628">
        <ele>2687</ele>
        <time>2021-03-11T12:14:24Z</time>
      </trkpt>
      <trkpt lat="44.99291" lon="6.43626">
        <ele>2691</ele>
        <time>2021-03-11T12:14:48Z</time>
      </trkpt>
      <trkpt lat="44.99284" lon="6.43623">
        <ele>2696</ele>
        <time>2021-03-11T12:15:54Z</time>
      </trkpt>
      <trkpt lat="44.99282" lon="6.43616">
        <ele>2701</ele>
        <time>2021-03-11T12:16:32Z</time>
      </trkpt>
      <trkpt lat="44.99276" lon="6.43611">
        <ele>2705</ele>
        <time>2021-03-11T12:17:13Z</time>
      </trkpt>
      <trkpt lat="44.99271" lon="6.43607">
        <ele>2710</ele>
        <time>2021-03-11T12:17:56Z</time>
      </trkpt>
      <trkpt lat="44.99263" lon="6.43607">
        <ele>2717</ele>
        <time>2021-03-11T12:33:24Z</time>
      </trkpt>
      <trkpt lat="44.99255" lon="6.43605">
        <ele>2723</ele>
        <time>2021-03-11T12:34:59Z</time>
      </trkpt>
      <trkpt lat="44.99255" lon="6.43599">
        <ele>2727</ele>
        <time>2021-03-11T12:38:32Z</time>
      </trkpt>
      <trkpt lat="44.99251" lon="6.436">
        <ele>2733</ele>
        <time>2021-03-11T12:41:51Z</time>
      </trkpt>
      <trkpt lat="44.9925" lon="6.43598">
        <ele>2733</ele>
        <time>2021-03-11T12:45:14Z</time>
      </trkpt>
      <trkpt lat="44.99246" lon="6.43602">
        <ele>2731</ele>
        <time>2021-03-11T13:02:47Z</time>
      </trkpt>
      <trkpt lat="44.99252" lon="6.43599">
        <ele>2730</ele>
        <time>2021-03-11T13:04:17Z</time>
      </trkpt>
      <trkpt lat="44.99254" lon="6.43594">
        <ele>2730</ele>
        <time>2021-03-11T13:08:57Z</time>
      </trkpt>
      <trkpt lat="44.99256" lon="6.43597">
        <ele>2730</ele>
        <time>2021-03-11T13:09:24Z</time>
      </trkpt>
      <trkpt lat="44.99263" lon="6.43597">
        <ele>2726</ele>
        <time>2021-03-11T13:10:43Z</time>
      </trkpt>
      <trkpt lat="44.99271" lon="6.43603">
        <ele>2720</ele>
        <time>2021-03-11T13:11:09Z</time>
      </trkpt>
      <trkpt lat="44.99277" lon="6.43604">
        <ele>2709</ele>
        <time>2021-03-11T13:13:01Z</time>
      </trkpt>
      <trkpt lat="44.99285" lon="6.43614">
        <ele>2702</ele>
        <time>2021-03-11T13:21:24Z</time>
      </trkpt>
      <trkpt lat="44.99292" lon="6.43615">
        <ele>2696</ele>
        <time>2021-03-11T13:21:36Z</time>
      </trkpt>
      <trkpt lat="44.99301" lon="6.43626">
        <ele>2696</ele>
        <time>2021-03-11T13:21:41Z</time>
      </trkpt>
      <trkpt lat="44.99309" lon="6.43628">
        <ele>2685</ele>
        <time>2021-03-11T13:21:44Z</time>
      </trkpt>
      <trkpt lat="44.99317" lon="6.43637">
        <ele>2685</ele>
        <time>2021-03-11T13:21:49Z</time>
      </trkpt>
      <trkpt lat="44.99325" lon="6.43632">
        <ele>2671</ele>
        <time>2021-03-11T13:21:55Z</time>
      </trkpt>
      <trkpt lat="44.99328" lon="6.43644">
        <ele>2671</ele>
        <time>2021-03-11T13:21:59Z</time>
      </trkpt>
      <trkpt lat="44.99329" lon="6.43657">
        <ele>2671</ele>
        <time>2021-03-11T13:22:03Z</time>
      </trkpt>
      <trkpt lat="44.99329" lon="6.4365">
        <ele>2654</ele>
        <time>2021-03-11T13:22:49Z</time>
      </trkpt>
      <trkpt lat="44.9933" lon="6.43643">
        <ele>2652</ele>
        <time>2021-03-11T13:24:08Z</time>
      </trkpt>
      <trkpt lat="44.99334" lon="6.43644">
        <ele>2654</ele>
        <time>2021-03-11T13:24:41Z</time>
      </trkpt>
      <trkpt lat="44.99338" lon="6.43641">
        <ele>2653</ele>
        <time>2021-03-11T13:25:36Z</time>
      </trkpt>
      <trkpt lat="44.99332" lon="6.43643">
        <ele>2654</ele>
        <time>2021-03-11T13:26:15Z</time>
      </trkpt>
      <trkpt lat="44.99329" lon="6.43645">
        <ele>2654</ele>
        <time>2021-03-11T13:26:22Z</time>
      </trkpt>
      <trkpt lat="44.99332" lon="6.43644">
        <ele>2653</ele>
        <time>2021-03-11T13:26:56Z</time>
      </trkpt>
      <trkpt lat="44.99336" lon="6.43648">
        <ele>2653</ele>
        <time>2021-03-11T13:27:05Z</time>
      </trkpt>
      <trkpt lat="44.99339" lon="6.4365">
        <ele>2653</ele>
        <time>2021-03-11T13:27:06Z</time>
      </trkpt>
      <trkpt lat="44.99344" lon="6.43657">
        <ele>2653</ele>
        <time>2021-03-11T13:27:08Z</time>
      </trkpt>
      <trkpt lat="44.99352" lon="6.43671">
        <ele>2653</ele>
        <time>2021-03-11T13:27:11Z</time>
      </trkpt>
      <trkpt lat="44.99358" lon="6.43682">
        <ele>2653</ele>
        <time>2021-03-11T13:27:13Z</time>
      </trkpt>
      <trkpt lat="44.99364" lon="6.43694">
        <ele>2638</ele>
        <time>2021-03-11T13:27:15Z</time>
      </trkpt>
      <trkpt lat="44.99372" lon="6.43705">
        <ele>2638</ele>
        <time>2021-03-11T13:27:17Z</time>
      </trkpt>
      <trkpt lat="44.99379" lon="6.43718">
        <ele>2638</ele>
        <time>2021-03-11T13:27:19Z</time>
      </trkpt>
      <trkpt lat="44.99385" lon="6.43733">
        <ele>2638</ele>
        <time>2021-03-11T13:27:21Z</time>
      </trkpt>
      <trkpt lat="44.99395" lon="6.43746">
        <ele>2638</ele>
        <time>2021-03-11T13:27:23Z</time>
      </trkpt>
      <trkpt lat="44.99402" lon="6.43762">
        <ele>2604</ele>
        <time>2021-03-11T13:27:25Z</time>
      </trkpt>
      <trkpt lat="44.99412" lon="6.43769">
        <ele>2604</ele>
        <time>2021-03-11T13:27:27Z</time>
      </trkpt>
      <trkpt lat="44.99426" lon="6.4375">
        <ele>2604</ele>
        <time>2021-03-11T13:27:29Z</time>
      </trkpt>
      <trkpt lat="44.99437" lon="6.43728">
        <ele>2604</ele>
        <time>2021-03-11T13:27:31Z</time>
      </trkpt>
      <trkpt lat="44.99443" lon="6.4372">
        <ele>2604</ele>
        <time>2021-03-11T13:27:32Z</time>
      </trkpt>
      <trkpt lat="44.99451" lon="6.43718">
        <ele>2604</ele>
        <time>2021-03-11T13:27:33Z</time>
      </trkpt>
      <trkpt lat="44.99458" lon="6.43725">
        <ele>2583</ele>
        <time>2021-03-11T13:27:34Z</time>
      </trkpt>
      <trkpt lat="44.99466" lon="6.43744">
        <ele>2583</ele>
        <time>2021-03-11T13:27:36Z</time>
      </trkpt>
      <trkpt lat="44.99476" lon="6.4376">
        <ele>2583</ele>
        <time>2021-03-11T13:27:38Z</time>
      </trkpt>
      <trkpt lat="44.9949" lon="6.43768">
        <ele>2583</ele>
        <time>2021-03-11T13:27:40Z</time>
      </trkpt>
      <trkpt lat="44.99499" lon="6.43768">
        <ele>2583</ele>
        <time>2021-03-11T13:27:41Z</time>
      </trkpt>
      <trkpt lat="44.99508" lon="6.43768">
        <ele>2583</ele>
        <time>2021-03-11T13:27:42Z</time>
      </trkpt>
      <trkpt lat="44.99525" lon="6.43769">
        <ele>2559</ele>
        <time>2021-03-11T13:27:44Z</time>
      </trkpt>
      <trkpt lat="44.99537" lon="6.43764">
        <ele>2559</ele>
        <time>2021-03-11T13:27:46Z</time>
      </trkpt>
      <trkpt lat="44.99534" lon="6.43763">
        <ele>2548</ele>
        <time>2021-03-11T13:28:59Z</time>
      </trkpt>
      <trkpt lat="44.9954" lon="6.43755">
        <ele>2548</ele>
        <time>2021-03-11T13:31:00Z</time>
      </trkpt>
      <trkpt lat="44.99543" lon="6.43745">
        <ele>2548</ele>
        <time>2021-03-11T13:31:03Z</time>
      </trkpt>
      <trkpt lat="44.99544" lon="6.43738">
        <ele>2547</ele>
        <time>2021-03-11T13:31:05Z</time>
      </trkpt>
      <trkpt lat="44.99544" lon="6.43727">
        <ele>2547</ele>
        <time>2021-03-11T13:31:07Z</time>
      </trkpt>
      <trkpt lat="44.99553" lon="6.43715">
        <ele>2547</ele>
        <time>2021-03-11T13:31:10Z</time>
      </trkpt>
      <trkpt lat="44.99565" lon="6.4371">
        <ele>2547</ele>
        <time>2021-03-11T13:31:12Z</time>
      </trkpt>
      <trkpt lat="44.99575" lon="6.43716">
        <ele>2533</ele>
        <time>2021-03-11T13:31:14Z</time>
      </trkpt>
      <trkpt lat="44.99585" lon="6.43712">
        <ele>2533</ele>
        <time>2021-03-11T13:31:16Z</time>
      </trkpt>
      <trkpt lat="44.99596" lon="6.43713">
        <ele>2533</ele>
        <time>2021-03-11T13:31:18Z</time>
      </trkpt>
      <trkpt lat="44.99603" lon="6.43727">
        <ele>2533</ele>
        <time>2021-03-11T13:31:20Z</time>
      </trkpt>
      <trkpt lat="44.99617" lon="6.43726">
        <ele>2533</ele>
        <time>2021-03-11T13:31:22Z</time>
      </trkpt>
      <trkpt lat="44.99627" lon="6.43734">
        <ele>2510</ele>
        <time>2021-03-11T13:31:24Z</time>
      </trkpt>
      <trkpt lat="44.99639" lon="6.4374">
        <ele>2510</ele>
        <time>2021-03-11T13:31:26Z</time>
      </trkpt>
      <trkpt lat="44.99654" lon="6.43736">
        <ele>2510</ele>
        <time>2021-03-11T13:31:28Z</time>
      </trkpt>
      <trkpt lat="44.99655" lon="6.43756">
        <ele>2510</ele>
        <time>2021-03-11T13:31:31Z</time>
      </trkpt>
      <trkpt lat="44.99664" lon="6.43771">
        <ele>2486</ele>
        <time>2021-03-11T13:31:34Z</time>
      </trkpt>
      <trkpt lat="44.99665" lon="6.43788">
        <ele>2486</ele>
        <time>2021-03-11T13:31:36Z</time>
      </trkpt>
      <trkpt lat="44.99671" lon="6.43801">
        <ele>2486</ele>
        <time>2021-03-11T13:31:38Z</time>
      </trkpt>
      <trkpt lat="44.99681" lon="6.4381">
        <ele>2486</ele>
        <time>2021-03-11T13:31:40Z</time>
      </trkpt>
      <trkpt lat="44.99677" lon="6.43829">
        <ele>2486</ele>
        <time>2021-03-11T13:31:42Z</time>
      </trkpt>
      <trkpt lat="44.99671" lon="6.43847">
        <ele>2453</ele>
        <time>2021-03-11T13:31:44Z</time>
      </trkpt>
      <trkpt lat="44.99686" lon="6.43853">
        <ele>2453</ele>
        <time>2021-03-11T13:31:46Z</time>
      </trkpt>
      <trkpt lat="44.99696" lon="6.43867">
        <ele>2453</ele>
        <time>2021-03-11T13:31:48Z</time>
      </trkpt>
      <trkpt lat="44.99696" lon="6.43886">
        <ele>2453</ele>
        <time>2021-03-11T13:31:50Z</time>
      </trkpt>
      <trkpt lat="44.99708" lon="6.43887">
        <ele>2453</ele>
        <time>2021-03-11T13:31:52Z</time>
      </trkpt>
      <trkpt lat="44.99722" lon="6.4389">
        <ele>2428</ele>
        <time>2021-03-11T13:31:54Z</time>
      </trkpt>
      <trkpt lat="44.99721" lon="6.43912">
        <ele>2428</ele>
        <time>2021-03-11T13:31:56Z</time>
      </trkpt>
      <trkpt lat="44.99711" lon="6.43929">
        <ele>2428</ele>
        <time>2021-03-11T13:31:58Z</time>
      </trkpt>
      <trkpt lat="44.99705" lon="6.4394">
        <ele>2428</ele>
        <time>2021-03-11T13:32:00Z</time>
      </trkpt>
      <trkpt lat="44.99711" lon="6.43956">
        <ele>2428</ele>
        <time>2021-03-11T13:32:03Z</time>
      </trkpt>
      <trkpt lat="44.99721" lon="6.43963">
        <ele>2404</ele>
        <time>2021-03-11T13:32:05Z</time>
      </trkpt>
      <trkpt lat="44.99724" lon="6.43959">
        <ele>2395</ele>
        <time>2021-03-11T13:33:30Z</time>
      </trkpt>
      <trkpt lat="44.99736" lon="6.43956">
        <ele>2395</ele>
        <time>2021-03-11T13:35:00Z</time>
      </trkpt>
      <trkpt lat="44.99745" lon="6.43954">
        <ele>2395</ele>
        <time>2021-03-11T13:35:02Z</time>
      </trkpt>
      <trkpt lat="44.99754" lon="6.43963">
        <ele>2393</ele>
        <time>2021-03-11T13:35:04Z</time>
      </trkpt>
      <trkpt lat="44.99756" lon="6.43983">
        <ele>2393</ele>
        <time>2021-03-11T13:35:06Z</time>
      </trkpt>
      <trkpt lat="44.99768" lon="6.43992">
        <ele>2393</ele>
        <time>2021-03-11T13:35:08Z</time>
      </trkpt>
      <trkpt lat="44.99778" lon="6.44004">
        <ele>2393</ele>
        <time>2021-03-11T13:35:10Z</time>
      </trkpt>
      <trkpt lat="44.99778" lon="6.44024">
        <ele>2393</ele>
        <time>2021-03-11T13:35:12Z</time>
      </trkpt>
      <trkpt lat="44.99787" lon="6.44036">
        <ele>2370</ele>
        <time>2021-03-11T13:35:14Z</time>
      </trkpt>
      <trkpt lat="44.99798" lon="6.44048">
        <ele>2370</ele>
        <time>2021-03-11T13:35:16Z</time>
      </trkpt>
      <trkpt lat="44.99802" lon="6.44069">
        <ele>2370</ele>
        <time>2021-03-11T13:35:18Z</time>
      </trkpt>
      <trkpt lat="44.99815" lon="6.44082">
        <ele>2370</ele>
        <time>2021-03-11T13:35:20Z</time>
      </trkpt>
      <trkpt lat="44.99832" lon="6.44084">
        <ele>2370</ele>
        <time>2021-03-11T13:35:22Z</time>
      </trkpt>
      <trkpt lat="44.99836" lon="6.44108">
        <ele>2339</ele>
        <time>2021-03-11T13:35:24Z</time>
      </trkpt>
      <trkpt lat="44.9984" lon="6.4413">
        <ele>2339</ele>
        <time>2021-03-11T13:35:26Z</time>
      </trkpt>
      <trkpt lat="44.99857" lon="6.44128">
        <ele>2339</ele>
        <time>2021-03-11T13:35:28Z</time>
      </trkpt>
      <trkpt lat="44.99873" lon="6.44122">
        <ele>2339</ele>
        <time>2021-03-11T13:35:30Z</time>
      </trkpt>
      <trkpt lat="44.99882" lon="6.44134">
        <ele>2339</ele>
        <time>2021-03-11T13:35:32Z</time>
      </trkpt>
      <trkpt lat="44.99893" lon="6.4414">
        <ele>2317</ele>
        <time>2021-03-11T13:35:34Z</time>
      </trkpt>
      <trkpt lat="44.999" lon="6.4415">
        <ele>2317</ele>
        <time>2021-03-11T13:35:36Z</time>
      </trkpt>
      <trkpt lat="44.99893" lon="6.44155">
        <ele>2301</ele>
        <time>2021-03-11T13:36:20Z</time>
      </trkpt>
      <trkpt lat="44.99898" lon="6.44164">
        <ele>2301</ele>
        <time>2021-03-11T13:37:18Z</time>
      </trkpt>
      <trkpt lat="44.99905" lon="6.44181">
        <ele>2301</ele>
        <time>2021-03-11T13:37:20Z</time>
      </trkpt>
      <trkpt lat="44.99909" lon="6.442">
        <ele>2301</ele>
        <time>2021-03-11T13:37:22Z</time>
      </trkpt>
      <trkpt lat="44.9991" lon="6.44218">
        <ele>2299</ele>
        <time>2021-03-11T13:37:24Z</time>
      </trkpt>
      <trkpt lat="44.9991" lon="6.44229">
        <ele>2299</ele>
        <time>2021-03-11T13:37:26Z</time>
      </trkpt>
      <trkpt lat="44.9991" lon="6.44238">
        <ele>2299</ele>
        <time>2021-03-11T13:37:28Z</time>
      </trkpt>
      <trkpt lat="44.99911" lon="6.44247">
        <ele>2299</ele>
        <time>2021-03-11T13:37:30Z</time>
      </trkpt>
      <trkpt lat="44.99921" lon="6.44256">
        <ele>2289</ele>
        <time>2021-03-11T13:37:35Z</time>
      </trkpt>
      <trkpt lat="44.99931" lon="6.44259">
        <ele>2289</ele>
        <time>2021-03-11T13:37:38Z</time>
      </trkpt>
      <trkpt lat="44.99943" lon="6.44251">
        <ele>2289</ele>
        <time>2021-03-11T13:37:40Z</time>
      </trkpt>
      <trkpt lat="44.99951" lon="6.44264">
        <ele>2289</ele>
        <time>2021-03-11T13:37:42Z</time>
      </trkpt>
      <trkpt lat="44.99962" lon="6.44286">
        <ele>2257</ele>
        <time>2021-03-11T13:37:44Z</time>
      </trkpt>
      <trkpt lat="44.99967" lon="6.44311">
        <ele>2257</ele>
        <time>2021-03-11T13:37:46Z</time>
      </trkpt>
      <trkpt lat="44.99967" lon="6.44334">
        <ele>2257</ele>
        <time>2021-03-11T13:37:48Z</time>
      </trkpt>
      <trkpt lat="44.99967" lon="6.44353">
        <ele>2257</ele>
        <time>2021-03-11T13:37:50Z</time>
      </trkpt>
      <trkpt lat="44.99967" lon="6.44375">
        <ele>2257</ele>
        <time>2021-03-11T13:37:52Z</time>
      </trkpt>
      <trkpt lat="44.99967" lon="6.44391">
        <ele>2240</ele>
        <time>2021-03-11T13:37:54Z</time>
      </trkpt>
      <trkpt lat="44.99967" lon="6.44407">
        <ele>2240</ele>
        <time>2021-03-11T13:37:56Z</time>
      </trkpt>
      <trkpt lat="44.99971" lon="6.44428">
        <ele>2240</ele>
        <time>2021-03-11T13:37:58Z</time>
      </trkpt>
      <trkpt lat="44.9997" lon="6.44442">
        <ele>2229</ele>
        <time>2021-03-11T13:38:04Z</time>
      </trkpt>
      <trkpt lat="44.9997" lon="6.44457">
        <ele>2229</ele>
        <time>2021-03-11T13:38:09Z</time>
      </trkpt>
      <trkpt lat="44.99973" lon="6.44472">
        <ele>2228</ele>
        <time>2021-03-11T13:38:14Z</time>
      </trkpt>
      <trkpt lat="44.99974" lon="6.44487">
        <ele>2228</ele>
        <time>2021-03-11T13:38:17Z</time>
      </trkpt>
      <trkpt lat="44.99972" lon="6.44502">
        <ele>2228</ele>
        <time>2021-03-11T13:38:20Z</time>
      </trkpt>
      <trkpt lat="44.99972" lon="6.44519">
        <ele>2228</ele>
        <time>2021-03-11T13:38:23Z</time>
      </trkpt>
      <trkpt lat="44.99973" lon="6.44536">
        <ele>2225</ele>
        <time>2021-03-11T13:38:26Z</time>
      </trkpt>
      <trkpt lat="44.99974" lon="6.44546">
        <ele>2225</ele>
        <time>2021-03-11T13:38:28Z</time>
      </trkpt>
      <trkpt lat="44.99975" lon="6.44558">
        <ele>2225</ele>
        <time>2021-03-11T13:38:30Z</time>
      </trkpt>
      <trkpt lat="44.99976" lon="6.44574">
        <ele>2225</ele>
        <time>2021-03-11T13:38:32Z</time>
      </trkpt>
      <trkpt lat="44.99979" lon="6.44592">
        <ele>2222</ele>
        <time>2021-03-11T13:38:34Z</time>
      </trkpt>
      <trkpt lat="44.99984" lon="6.44608">
        <ele>2222</ele>
        <time>2021-03-11T13:38:36Z</time>
      </trkpt>
      <trkpt lat="44.99991" lon="6.44624">
        <ele>2222</ele>
        <time>2021-03-11T13:38:39Z</time>
      </trkpt>
      <trkpt lat="44.99995" lon="6.44637">
        <ele>2222</ele>
        <time>2021-03-11T13:38:42Z</time>
      </trkpt>
      <trkpt lat="45.00001" lon="6.44649">
        <ele>2219</ele>
        <time>2021-03-11T13:38:45Z</time>
      </trkpt>
      <trkpt lat="45.00005" lon="6.44662">
        <ele>2219</ele>
        <time>2021-03-11T13:38:48Z</time>
      </trkpt>
      <trkpt lat="45.00008" lon="6.44673">
        <ele>2219</ele>
        <time>2021-03-11T13:38:50Z</time>
      </trkpt>
      <trkpt lat="45.00011" lon="6.44686">
        <ele>2219</ele>
        <time>2021-03-11T13:38:52Z</time>
      </trkpt>
      <trkpt lat="45.00014" lon="6.44704">
        <ele>2202</ele>
        <time>2021-03-11T13:38:54Z</time>
      </trkpt>
      <trkpt lat="45.0002" lon="6.44723">
        <ele>2202</ele>
        <time>2021-03-11T13:38:56Z</time>
      </trkpt>
      <trkpt lat="45.00025" lon="6.44739">
        <ele>2202</ele>
        <time>2021-03-11T13:38:58Z</time>
      </trkpt>
      <trkpt lat="45.0003" lon="6.44753">
        <ele>2202</ele>
        <time>2021-03-11T13:39:00Z</time>
      </trkpt>
      <trkpt lat="45.00033" lon="6.44767">
        <ele>2202</ele>
        <time>2021-03-11T13:39:02Z</time>
      </trkpt>
      <trkpt lat="45.00032" lon="6.44784">
        <ele>2189</ele>
        <time>2021-03-11T13:39:05Z</time>
      </trkpt>
      <trkpt lat="45.00032" lon="6.44802">
        <ele>2189</ele>
        <time>2021-03-11T13:39:08Z</time>
      </trkpt>
      <trkpt lat="45.00032" lon="6.44817">
        <ele>2189</ele>
        <time>2021-03-11T13:39:10Z</time>
      </trkpt>
      <trkpt lat="45.00032" lon="6.44832">
        <ele>2189</ele>
        <time>2021-03-11T13:39:13Z</time>
      </trkpt>
      <trkpt lat="45.00031" lon="6.44843">
        <ele>2187</ele>
        <time>2021-03-11T13:39:21Z</time>
      </trkpt>
      <trkpt lat="45.00028" lon="6.44857">
        <ele>2187</ele>
        <time>2021-03-11T13:40:47Z</time>
      </trkpt>
      <trkpt lat="45.00028" lon="6.44866">
        <ele>2187</ele>
        <time>2021-03-11T13:40:49Z</time>
      </trkpt>
      <trkpt lat="45.00027" lon="6.44874">
        <ele>2187</ele>
        <time>2021-03-11T13:40:51Z</time>
      </trkpt>
      <trkpt lat="45.00026" lon="6.44885">
        <ele>2187</ele>
        <time>2021-03-11T13:40:53Z</time>
      </trkpt>
      <trkpt lat="45.00024" lon="6.44898">
        <ele>2185</ele>
        <time>2021-03-11T13:40:55Z</time>
      </trkpt>
      <trkpt lat="45.00024" lon="6.44913">
        <ele>2185</ele>
        <time>2021-03-11T13:40:57Z</time>
      </trkpt>
      <trkpt lat="45.00023" lon="6.44929">
        <ele>2185</ele>
        <time>2021-03-11T13:40:59Z</time>
      </trkpt>
      <trkpt lat="45.00024" lon="6.44944">
        <ele>2185</ele>
        <time>2021-03-11T13:41:02Z</time>
      </trkpt>
      <trkpt lat="45.00035" lon="6.44951">
        <ele>2173</ele>
        <time>2021-03-11T13:41:05Z</time>
      </trkpt>
      <trkpt lat="45.00047" lon="6.4495">
        <ele>2173</ele>
        <time>2021-03-11T13:41:08Z</time>
      </trkpt>
      <trkpt lat="45.00057" lon="6.44951">
        <ele>2173</ele>
        <time>2021-03-11T13:41:11Z</time>
      </trkpt>
      <trkpt lat="45.0006" lon="6.44967">
        <ele>2173</ele>
        <time>2021-03-11T13:41:13Z</time>
      </trkpt>
      <trkpt lat="45.00073" lon="6.44959">
        <ele>2145</ele>
        <time>2021-03-11T13:41:16Z</time>
      </trkpt>
      <trkpt lat="45.0008" lon="6.44972">
        <ele>2145</ele>
        <time>2021-03-11T13:41:19Z</time>
      </trkpt>
      <trkpt lat="45.00092" lon="6.44972">
        <ele>2145</ele>
        <time>2021-03-11T13:41:22Z</time>
      </trkpt>
      <trkpt lat="45.00099" lon="6.44987">
        <ele>2122</ele>
        <time>2021-03-11T13:41:25Z</time>
      </trkpt>
      <trkpt lat="45.00112" lon="6.44991">
        <ele>2122</ele>
        <time>2021-03-11T13:41:28Z</time>
      </trkpt>
      <trkpt lat="45.00114" lon="6.45006">
        <ele>2122</ele>
        <time>2021-03-11T13:41:30Z</time>
      </trkpt>
      <trkpt lat="45.00128" lon="6.45001">
        <ele>2101</ele>
        <time>2021-03-11T13:41:34Z</time>
      </trkpt>
      <trkpt lat="45.00139" lon="6.45003">
        <ele>2101</ele>
        <time>2021-03-11T13:41:37Z</time>
      </trkpt>
      <trkpt lat="45.00151" lon="6.45012">
        <ele>2101</ele>
        <time>2021-03-11T13:41:40Z</time>
      </trkpt>
      <trkpt lat="45.00159" lon="6.45022">
        <ele>2101</ele>
        <time>2021-03-11T13:41:43Z</time>
      </trkpt>
      <trkpt lat="45.00168" lon="6.45016">
        <ele>2079</ele>
        <time>2021-03-11T13:41:45Z</time>
      </trkpt>
      <trkpt lat="45.00172" lon="6.45036">
        <ele>2079</ele>
        <time>2021-03-11T13:41:48Z</time>
      </trkpt>
      <trkpt lat="45.0017" lon="6.45051">
        <ele>2079</ele>
        <time>2021-03-11T13:41:51Z</time>
      </trkpt>
      <trkpt lat="45.00177" lon="6.45061">
        <ele>2062</ele>
        <time>2021-03-11T13:41:55Z</time>
      </trkpt>
      <trkpt lat="45.00183" lon="6.45049">
        <ele>2062</ele>
        <time>2021-03-11T13:41:57Z</time>
      </trkpt>
      <trkpt lat="45.00192" lon="6.45036">
        <ele>2062</ele>
        <time>2021-03-11T13:42:00Z</time>
      </trkpt>
      <trkpt lat="45.00202" lon="6.45028">
        <ele>2062</ele>
        <time>2021-03-11T13:42:03Z</time>
      </trkpt>
      <trkpt lat="45.00214" lon="6.45037">
        <ele>2053</ele>
        <time>2021-03-11T13:42:06Z</time>
      </trkpt>
      <trkpt lat="45.00224" lon="6.4505">
        <ele>2053</ele>
        <time>2021-03-11T13:42:09Z</time>
      </trkpt>
      <trkpt lat="45.00233" lon="6.45057">
        <ele>2053</ele>
        <time>2021-03-11T13:42:11Z</time>
      </trkpt>
      <trkpt lat="45.00246" lon="6.45065">
        <ele>2030</ele>
        <time>2021-03-11T13:42:14Z</time>
      </trkpt>
      <trkpt lat="45.00255" lon="6.45081">
        <ele>2030</ele>
        <time>2021-03-11T13:42:17Z</time>
      </trkpt>
      <trkpt lat="45.00267" lon="6.45087">
        <ele>2030</ele>
        <time>2021-03-11T13:42:20Z</time>
      </trkpt>
      <trkpt lat="45.00269" lon="6.45101">
        <ele>2030</ele>
        <time>2021-03-11T13:42:23Z</time>
      </trkpt>
      <trkpt lat="45.00264" lon="6.45107">
        <ele>2011</ele>
        <time>2021-03-11T13:43:21Z</time>
      </trkpt>
      <trkpt lat="45.0026" lon="6.45122">
        <ele>2010</ele>
        <time>2021-03-11T13:44:49Z</time>
      </trkpt>
      <trkpt lat="45.00255" lon="6.45136">
        <ele>2010</ele>
        <time>2021-03-11T13:44:55Z</time>
      </trkpt>
      <trkpt lat="45.00254" lon="6.4515">
        <ele>2010</ele>
        <time>2021-03-11T13:44:58Z</time>
      </trkpt>
      <trkpt lat="45.00251" lon="6.45169">
        <ele>2010</ele>
        <time>2021-03-11T13:45:01Z</time>
      </trkpt>
      <trkpt lat="45.0025" lon="6.45186">
        <ele>2010</ele>
        <time>2021-03-11T13:45:03Z</time>
      </trkpt>
      <trkpt lat="45.00246" lon="6.45204">
        <ele>2004</ele>
        <time>2021-03-11T13:45:05Z</time>
      </trkpt>
      <trkpt lat="45.00241" lon="6.45218">
        <ele>2004</ele>
        <time>2021-03-11T13:45:07Z</time>
      </trkpt>
      <trkpt lat="45.00237" lon="6.45237">
        <ele>2004</ele>
        <time>2021-03-11T13:45:10Z</time>
      </trkpt>
      <trkpt lat="45.00234" lon="6.45251">
        <ele>2004</ele>
        <time>2021-03-11T13:45:12Z</time>
      </trkpt>
      <trkpt lat="45.00233" lon="6.45265">
        <ele>1994</ele>
        <time>2021-03-11T13:45:14Z</time>
      </trkpt>
      <trkpt lat="45.00231" lon="6.45284">
        <ele>1994</ele>
        <time>2021-03-11T13:45:17Z</time>
      </trkpt>
      <trkpt lat="45.00227" lon="6.45303">
        <ele>1994</ele>
        <time>2021-03-11T13:45:20Z</time>
      </trkpt>
      <trkpt lat="45.00226" lon="6.45319">
        <ele>1994</ele>
        <time>2021-03-11T13:45:23Z</time>
      </trkpt>
      <trkpt lat="45.00237" lon="6.45331">
        <ele>1986</ele>
        <time>2021-03-11T13:45:28Z</time>
      </trkpt>
      <trkpt lat="45.00245" lon="6.45343">
        <ele>1986</ele>
        <time>2021-03-11T13:45:31Z</time>
      </trkpt>
      <trkpt lat="45.00257" lon="6.45344">
        <ele>1967</ele>
        <time>2021-03-11T13:45:34Z</time>
      </trkpt>
      <trkpt lat="45.00256" lon="6.45361">
        <ele>1967</ele>
        <time>2021-03-11T13:45:37Z</time>
      </trkpt>
      <trkpt lat="45.00267" lon="6.45363">
        <ele>1967</ele>
        <time>2021-03-11T13:45:40Z</time>
      </trkpt>
      <trkpt lat="45.00268" lon="6.45379">
        <ele>1967</ele>
        <time>2021-03-11T13:45:42Z</time>
      </trkpt>
      <trkpt lat="45.00265" lon="6.45397">
        <ele>1951</ele>
        <time>2021-03-11T13:45:45Z</time>
      </trkpt>
      <trkpt lat="45.00264" lon="6.45412">
        <ele>1951</ele>
        <time>2021-03-11T13:45:50Z</time>
      </trkpt>
      <trkpt lat="45.00266" lon="6.45423">
        <ele>1951</ele>
        <time>2021-03-11T13:45:53Z</time>
      </trkpt>
      <trkpt lat="45.0027" lon="6.45441">
        <ele>1946</ele>
        <time>2021-03-11T13:45:57Z</time>
      </trkpt>
      <trkpt lat="45.00273" lon="6.45453">
        <ele>1946</ele>
        <time>2021-03-11T13:46:00Z</time>
      </trkpt>
      <trkpt lat="45.00283" lon="6.45458">
        <ele>1946</ele>
        <time>2021-03-11T13:46:03Z</time>
      </trkpt>
      <trkpt lat="45.00287" lon="6.45475">
        <ele>1936</ele>
        <time>2021-03-11T13:46:06Z</time>
      </trkpt>
      <trkpt lat="45.00287" lon="6.45494">
        <ele>1936</ele>
        <time>2021-03-11T13:46:09Z</time>
      </trkpt>
      <trkpt lat="45.00288" lon="6.45509">
        <ele>1936</ele>
        <time>2021-03-11T13:46:11Z</time>
      </trkpt>
      <trkpt lat="45.00289" lon="6.45524">
        <ele>1923</ele>
        <time>2021-03-11T13:46:14Z</time>
      </trkpt>
      <trkpt lat="45.00291" lon="6.45536">
        <ele>1923</ele>
        <time>2021-03-11T13:46:17Z</time>
      </trkpt>
      <trkpt lat="45.00301" lon="6.45544">
        <ele>1923</ele>
        <time>2021-03-11T13:46:22Z</time>
      </trkpt>
      <trkpt lat="45.00304" lon="6.45559">
        <ele>1912</ele>
        <time>2021-03-11T13:46:24Z</time>
      </trkpt>
      <trkpt lat="45.00307" lon="6.45578">
        <ele>1912</ele>
        <time>2021-03-11T13:46:27Z</time>
      </trkpt>
      <trkpt lat="45.00307" lon="6.45595">
        <ele>1912</ele>
        <time>2021-03-11T13:46:30Z</time>
      </trkpt>
      <trkpt lat="45.00305" lon="6.45607">
        <ele>1912</ele>
        <time>2021-03-11T13:46:33Z</time>
      </trkpt>
      <trkpt lat="45.00304" lon="6.45619">
        <ele>1904</ele>
        <time>2021-03-11T13:46:36Z</time>
      </trkpt>
      <trkpt lat="45.00304" lon="6.45629">
        <ele>1904</ele>
        <time>2021-03-11T13:46:38Z</time>
      </trkpt>
      <trkpt lat="45.00305" lon="6.45643">
        <ele>1904</ele>
        <time>2021-03-11T13:46:40Z</time>
      </trkpt>
      <trkpt lat="45.00307" lon="6.45663">
        <ele>1904</ele>
        <time>2021-03-11T13:46:42Z</time>
      </trkpt>
      <trkpt lat="45.0031" lon="6.45684">
        <ele>1901</ele>
        <time>2021-03-11T13:46:44Z</time>
      </trkpt>
      <trkpt lat="45.00311" lon="6.457">
        <ele>1901</ele>
        <time>2021-03-11T13:46:46Z</time>
      </trkpt>
      <trkpt lat="45.00311" lon="6.45713">
        <ele>1901</ele>
        <time>2021-03-11T13:46:49Z</time>
      </trkpt>
      <trkpt lat="45.00315" lon="6.45728">
        <ele>1901</ele>
        <time>2021-03-11T13:46:52Z</time>
      </trkpt>
      <trkpt lat="45.0032" lon="6.45743">
        <ele>1887</ele>
        <time>2021-03-11T13:46:56Z</time>
      </trkpt>
      <trkpt lat="45.00324" lon="6.45756">
        <ele>1887</ele>
        <time>2021-03-11T13:47:00Z</time>
      </trkpt>
      <trkpt lat="45.00334" lon="6.45765">
        <ele>1883</ele>
        <time>2021-03-11T13:47:05Z</time>
      </trkpt>
      <trkpt lat="45.00337" lon="6.4577">
        <ele>1876</ele>
        <time>2021-03-11T13:48:44Z</time>
      </trkpt>
      <trkpt lat="45.00343" lon="6.45782">
        <ele>1875</ele>
        <time>2021-03-11T13:48:58Z</time>
      </trkpt>
      <trkpt lat="45.00352" lon="6.45797">
        <ele>1875</ele>
        <time>2021-03-11T13:49:02Z</time>
      </trkpt>
      <trkpt lat="45.00362" lon="6.45798">
        <ele>1870</ele>
        <time>2021-03-11T13:49:05Z</time>
      </trkpt>
      <trkpt lat="45.00375" lon="6.45807">
        <ele>1870</ele>
        <time>2021-03-11T13:49:08Z</time>
      </trkpt>
      <trkpt lat="45.00377" lon="6.45826">
        <ele>1870</ele>
        <time>2021-03-11T13:49:11Z</time>
      </trkpt>
      <trkpt lat="45.00375" lon="6.45841">
        <ele>1853</ele>
        <time>2021-03-11T13:49:14Z</time>
      </trkpt>
      <trkpt lat="45.00383" lon="6.45856">
        <ele>1853</ele>
        <time>2021-03-11T13:49:17Z</time>
      </trkpt>
      <trkpt lat="45.00388" lon="6.4587">
        <ele>1853</ele>
        <time>2021-03-11T13:49:20Z</time>
      </trkpt>
      <trkpt lat="45.00391" lon="6.45887">
        <ele>1853</ele>
        <time>2021-03-11T13:49:23Z</time>
      </trkpt>
      <trkpt lat="45.00397" lon="6.45903">
        <ele>1841</ele>
        <time>2021-03-11T13:49:26Z</time>
      </trkpt>
      <trkpt lat="45.00406" lon="6.45914">
        <ele>1841</ele>
        <time>2021-03-11T13:49:29Z</time>
      </trkpt>
      <trkpt lat="45.00415" lon="6.4593">
        <ele>1841</ele>
        <time>2021-03-11T13:49:32Z</time>
      </trkpt>
      <trkpt lat="45.0041" lon="6.45948">
        <ele>1829</ele>
        <time>2021-03-11T13:49:35Z</time>
      </trkpt>
      <trkpt lat="45.00406" lon="6.45961">
        <ele>1829</ele>
        <time>2021-03-11T13:49:38Z</time>
      </trkpt>
      <trkpt lat="45.00411" lon="6.45971">
        <ele>1829</ele>
        <time>2021-03-11T13:49:41Z</time>
      </trkpt>
      <trkpt lat="45.0042" lon="6.4598">
        <ele>1814</ele>
        <time>2021-03-11T13:49:44Z</time>
      </trkpt>
      <trkpt lat="45.0042" lon="6.45992">
        <ele>1814</ele>
        <time>2021-03-11T13:49:47Z</time>
      </trkpt>
      <trkpt lat="45.00417" lon="6.46003">
        <ele>1814</ele>
        <time>2021-03-11T13:49:50Z</time>
      </trkpt>
      <trkpt lat="45.00414" lon="6.46013">
        <ele>1814</ele>
        <time>2021-03-11T13:49:52Z</time>
      </trkpt>
      <trkpt lat="45.00411" lon="6.46025">
        <ele>1803</ele>
        <time>2021-03-11T13:49:54Z</time>
      </trkpt>
      <trkpt lat="45.00406" lon="6.46035">
        <ele>1803</ele>
        <time>2021-03-11T13:49:56Z</time>
      </trkpt>
      <trkpt lat="45.00406" lon="6.46048">
        <ele>1803</ele>
        <time>2021-03-11T13:49:59Z</time>
      </trkpt>
      <trkpt lat="45.00409" lon="6.46057">
        <ele>1803</ele>
        <time>2021-03-11T13:50:01Z</time>
      </trkpt>
      <trkpt lat="45.00413" lon="6.46066">
        <ele>1803</ele>
        <time>2021-03-11T13:50:03Z</time>
      </trkpt>
      <trkpt lat="45.00415" lon="6.46076">
        <ele>1789</ele>
        <time>2021-03-11T13:50:05Z</time>
      </trkpt>
      <trkpt lat="45.00419" lon="6.46086">
        <ele>1789</ele>
        <time>2021-03-11T13:50:07Z</time>
      </trkpt>
      <trkpt lat="45.00421" lon="6.46098">
        <ele>1789</ele>
        <time>2021-03-11T13:50:09Z</time>
      </trkpt>
      <trkpt lat="45.00434" lon="6.46101">
        <ele>1789</ele>
        <time>2021-03-11T13:50:12Z</time>
      </trkpt>
      <trkpt lat="45.00446" lon="6.46098">
        <ele>1770</ele>
        <time>2021-03-11T13:50:15Z</time>
      </trkpt>
      <trkpt lat="45.00457" lon="6.46097">
        <ele>1770</ele>
        <time>2021-03-11T13:50:19Z</time>
      </trkpt>
      <trkpt lat="45.00467" lon="6.46097">
        <ele>1770</ele>
        <time>2021-03-11T13:50:23Z</time>
      </trkpt>
      <trkpt lat="45.00476" lon="6.461">
        <ele>1765</ele>
        <time>2021-03-11T13:50:28Z</time>
      </trkpt>
      <trkpt lat="45.00482" lon="6.46103">
        <ele>1764</ele>
        <time>2021-03-11T13:50:44Z</time>
      </trkpt>
      <trkpt lat="45.00472" lon="6.46108">
        <ele>1765</ele>
        <time>2021-03-11T13:52:34Z</time>
      </trkpt>
      <trkpt lat="45.00462" lon="6.46117">
        <ele>1765</ele>
        <time>2021-03-11T13:52:37Z</time>
      </trkpt>
      <trkpt lat="45.00453" lon="6.46126">
        <ele>1765</ele>
        <time>2021-03-11T13:52:40Z</time>
      </trkpt>
      <trkpt lat="45.00444" lon="6.46137">
        <ele>1765</ele>
        <time>2021-03-11T13:52:43Z</time>
      </trkpt>
      <trkpt lat="45.00439" lon="6.46145">
        <ele>1761</ele>
        <time>2021-03-11T13:52:45Z</time>
      </trkpt>
      <trkpt lat="45.00442" lon="6.46163">
        <ele>1761</ele>
        <time>2021-03-11T13:52:49Z</time>
      </trkpt>
      <trkpt lat="45.0045" lon="6.46178">
        <ele>1761</ele>
        <time>2021-03-11T13:52:52Z</time>
      </trkpt>
      <trkpt lat="45.00456" lon="6.46189">
        <ele>1745</ele>
        <time>2021-03-11T13:52:54Z</time>
      </trkpt>
      <trkpt lat="45.0046" lon="6.46208">
        <ele>1745</ele>
        <time>2021-03-11T13:52:57Z</time>
      </trkpt>
      <trkpt lat="45.00463" lon="6.46227">
        <ele>1745</ele>
        <time>2021-03-11T13:53:00Z</time>
      </trkpt>
      <trkpt lat="45.00468" lon="6.4624">
        <ele>1745</ele>
        <time>2021-03-11T13:53:02Z</time>
      </trkpt>
      <trkpt lat="45.00464" lon="6.46254">
        <ele>1734</ele>
        <time>2021-03-11T13:53:04Z</time>
      </trkpt>
      <trkpt lat="45.00471" lon="6.46267">
        <ele>1734</ele>
        <time>2021-03-11T13:53:07Z</time>
      </trkpt>
      <trkpt lat="45.00477" lon="6.46278">
        <ele>1734</ele>
        <time>2021-03-11T13:53:09Z</time>
      </trkpt>
      <trkpt lat="45.00485" lon="6.46294">
        <ele>1734</ele>
        <time>2021-03-11T13:53:12Z</time>
      </trkpt>
      <trkpt lat="45.0049" lon="6.46311">
        <ele>1716</ele>
        <time>2021-03-11T13:53:15Z</time>
      </trkpt>
      <trkpt lat="45.00486" lon="6.46325">
        <ele>1716</ele>
        <time>2021-03-11T13:53:17Z</time>
      </trkpt>
      <trkpt lat="45.0048" lon="6.46337">
        <ele>1716</ele>
        <time>2021-03-11T13:53:19Z</time>
      </trkpt>
      <trkpt lat="45.00483" lon="6.46354">
        <ele>1716</ele>
        <time>2021-03-11T13:53:22Z</time>
      </trkpt>
      <trkpt lat="45.00486" lon="6.46367">
        <ele>1706</ele>
        <time>2021-03-11T13:53:24Z</time>
      </trkpt>
      <trkpt lat="45.0049" lon="6.46385">
        <ele>1706</ele>
        <time>2021-03-11T13:53:27Z</time>
      </trkpt>
      <trkpt lat="45.00492" lon="6.46397">
        <ele>1706</ele>
        <time>2021-03-11T13:53:30Z</time>
      </trkpt>
      <trkpt lat="45.005" lon="6.46408">
        <ele>1695</ele>
        <time>2021-03-11T13:53:34Z</time>
      </trkpt>
      <trkpt lat="45.0051" lon="6.46418">
        <ele>1695</ele>
        <time>2021-03-11T13:53:37Z</time>
      </trkpt>
      <trkpt lat="45.00519" lon="6.46428">
        <ele>1695</ele>
        <time>2021-03-11T13:53:40Z</time>
      </trkpt>
      <trkpt lat="45.00524" lon="6.46445">
        <ele>1695</ele>
        <time>2021-03-11T13:53:43Z</time>
      </trkpt>
      <trkpt lat="45.00532" lon="6.46456">
        <ele>1682</ele>
        <time>2021-03-11T13:53:46Z</time>
      </trkpt>
      <trkpt lat="45.00532" lon="6.46471">
        <ele>1672</ele>
        <time>2021-03-11T13:53:56Z</time>
      </trkpt>
      <trkpt lat="45.00534" lon="6.46489">
        <ele>1672</ele>
        <time>2021-03-11T13:54:00Z</time>
      </trkpt>
      <trkpt lat="45.00534" lon="6.46503">
        <ele>1672</ele>
        <time>2021-03-11T13:54:02Z</time>
      </trkpt>
      <trkpt lat="45.00532" lon="6.46516">
        <ele>1661</ele>
        <time>2021-03-11T13:54:04Z</time>
      </trkpt>
      <trkpt lat="45.00529" lon="6.46529">
        <ele>1661</ele>
        <time>2021-03-11T13:54:06Z</time>
      </trkpt>
      <trkpt lat="45.00534" lon="6.46544">
        <ele>1661</ele>
        <time>2021-03-11T13:54:09Z</time>
      </trkpt>
      <trkpt lat="45.00528" lon="6.46557">
        <ele>1650</ele>
        <time>2021-03-11T13:54:25Z</time>
      </trkpt>
      <trkpt lat="45.00535" lon="6.46567">
        <ele>1650</ele>
        <time>2021-03-11T13:54:29Z</time>
      </trkpt>
      <trkpt lat="45.0054" lon="6.46574">
        <ele>1648</ele>
        <time>2021-03-11T13:54:40Z</time>
      </trkpt>
      <trkpt lat="45.00552" lon="6.46588">
        <ele>1648</ele>
        <time>2021-03-11T13:54:43Z</time>
      </trkpt>
      <trkpt lat="45.00563" lon="6.46595">
        <ele>1645</ele>
        <time>2021-03-11T13:54:45Z</time>
      </trkpt>
      <trkpt lat="45.00574" lon="6.46603">
        <ele>1645</ele>
        <time>2021-03-11T13:54:48Z</time>
      </trkpt>
      <trkpt lat="45.00585" lon="6.46597">
        <ele>1637</ele>
        <time>2021-03-11T13:54:54Z</time>
      </trkpt>
      <trkpt lat="45.00595" lon="6.46592">
        <ele>1637</ele>
        <time>2021-03-11T13:55:00Z</time>
      </trkpt>
      <trkpt lat="45.00606" lon="6.46595">
        <ele>1639</ele>
        <time>2021-03-11T13:55:07Z</time>
      </trkpt>
      <trkpt lat="45.00617" lon="6.46598">
        <ele>1639</ele>
        <time>2021-03-11T13:55:14Z</time>
      </trkpt>
      <trkpt lat="45.00628" lon="6.46598">
        <ele>1639</ele>
        <time>2021-03-11T13:55:19Z</time>
      </trkpt>
      <trkpt lat="45.00639" lon="6.46597">
        <ele>1640</ele>
        <time>2021-03-11T13:55:25Z</time>
      </trkpt>
      <trkpt lat="45.0065" lon="6.46594">
        <ele>1640</ele>
        <time>2021-03-11T13:55:30Z</time>
      </trkpt>
      <trkpt lat="45.00659" lon="6.4659">
        <ele>1640</ele>
        <time>2021-03-11T13:55:35Z</time>
      </trkpt>
      <trkpt lat="45.00669" lon="6.46585">
        <ele>1640</ele>
        <time>2021-03-11T13:55:40Z</time>
      </trkpt>
      <trkpt lat="45.00677" lon="6.46576">
        <ele>1640</ele>
        <time>2021-03-11T13:55:45Z</time>
      </trkpt>
      <trkpt lat="45.00686" lon="6.46565">
        <ele>1640</ele>
        <time>2021-03-11T13:55:53Z</time>
      </trkpt>
      <trkpt lat="45.00695" lon="6.46558">
        <ele>1639</ele>
        <time>2021-03-11T13:56:09Z</time>
      </trkpt>
      <trkpt lat="45.00705" lon="6.46559">
        <ele>1640</ele>
        <time>2021-03-11T13:56:17Z</time>
      </trkpt>
      <trkpt lat="45.00716" lon="6.46562">
        <ele>1641</ele>
        <time>2021-03-11T13:56:24Z</time>
      </trkpt>
      <trkpt lat="45.00726" lon="6.46565">
        <ele>1641</ele>
        <time>2021-03-11T13:56:33Z</time>
      </trkpt>
      <trkpt lat="45.00736" lon="6.46571">
        <ele>1643</ele>
        <time>2021-03-11T13:56:42Z</time>
      </trkpt>
      <trkpt lat="45.00746" lon="6.46574">
        <ele>1644</ele>
        <time>2021-03-11T13:56:56Z</time>
      </trkpt>
      <trkpt lat="45.00754" lon="6.46579">
        <ele>1646</ele>
        <time>2021-03-11T13:57:12Z</time>
      </trkpt>
      <trkpt lat="45.00761" lon="6.46591">
        <ele>1646</ele>
        <time>2021-03-11T13:57:19Z</time>
      </trkpt>
      <trkpt lat="45.00767" lon="6.46604">
        <ele>1646</ele>
        <time>2021-03-11T13:57:25Z</time>
      </trkpt>
      <trkpt lat="45.00779" lon="6.46609">
        <ele>1646</ele>
        <time>2021-03-11T13:57:32Z</time>
      </trkpt>
      <trkpt lat="45.00791" lon="6.46606">
        <ele>1646</ele>
        <time>2021-03-11T13:57:37Z</time>
      </trkpt>
      <trkpt lat="45.008" lon="6.46599">
        <ele>1646</ele>
        <time>2021-03-11T13:57:41Z</time>
      </trkpt>
      <trkpt lat="45.0081" lon="6.46589">
        <ele>1645</ele>
        <time>2021-03-11T13:57:45Z</time>
      </trkpt>
      <trkpt lat="45.00817" lon="6.4658">
        <ele>1645</ele>
        <time>2021-03-11T13:57:49Z</time>
      </trkpt>
      <trkpt lat="45.00825" lon="6.46569">
        <ele>1644</ele>
        <time>2021-03-11T13:57:54Z</time>
      </trkpt>
      <trkpt lat="45.00832" lon="6.46558">
        <ele>1644</ele>
        <time>2021-03-11T13:57:59Z</time>
      </trkpt>
      <trkpt lat="45.00838" lon="6.46547">
        <ele>1644</ele>
        <time>2021-03-11T13:58:07Z</time>
      </trkpt>
      <trkpt lat="45.00845" lon="6.46534">
        <ele>1644</ele>
        <time>2021-03-11T13:58:15Z</time>
      </trkpt>
      <trkpt lat="45.00853" lon="6.46522">
        <ele>1644</ele>
        <time>2021-03-11T13:58:21Z</time>
      </trkpt>
      <trkpt lat="45.00859" lon="6.4651">
        <ele>1646</ele>
        <time>2021-03-11T13:58:28Z</time>
      </trkpt>
      <trkpt lat="45.00869" lon="6.46505">
        <ele>1646</ele>
        <time>2021-03-11T13:58:50Z</time>
      </trkpt>
      <trkpt lat="45.0088" lon="6.46503">
        <ele>1648</ele>
        <time>2021-03-11T13:58:57Z</time>
      </trkpt>
      <trkpt lat="45.0089" lon="6.46507">
        <ele>1647</ele>
        <time>2021-03-11T13:59:07Z</time>
      </trkpt>
      <trkpt lat="45.00899" lon="6.46513">
        <ele>1649</ele>
        <time>2021-03-11T13:59:17Z</time>
      </trkpt>
      <trkpt lat="45.00909" lon="6.46518">
        <ele>1650</ele>
        <time>2021-03-11T13:59:33Z</time>
      </trkpt>
      <trkpt lat="45.0092" lon="6.46521">
        <ele>1651</ele>
        <time>2021-03-11T13:59:45Z</time>
      </trkpt>
      <trkpt lat="45.00931" lon="6.46523">
        <ele>1651</ele>
        <time>2021-03-11T13:59:52Z</time>
      </trkpt>
      <trkpt lat="45.00941" lon="6.46524">
        <ele>1653</ele>
        <time>2021-03-11T13:59:57Z</time>
      </trkpt>
      <trkpt lat="45.00951" lon="6.46526">
        <ele>1653</ele>
        <time>2021-03-11T14:00:01Z</time>
      </trkpt>
      <trkpt lat="45.00961" lon="6.46529">
        <ele>1650</ele>
        <time>2021-03-11T14:00:06Z</time>
      </trkpt>
      <trkpt lat="45.00972" lon="6.4653">
        <ele>1650</ele>
        <time>2021-03-11T14:00:12Z</time>
      </trkpt>
      <trkpt lat="45.00981" lon="6.46534">
        <ele>1652</ele>
        <time>2021-03-11T14:00:19Z</time>
      </trkpt>
      <trkpt lat="45.00992" lon="6.46533">
        <ele>1651</ele>
        <time>2021-03-11T14:00:28Z</time>
      </trkpt>
      <trkpt lat="45.01001" lon="6.46529">
        <ele>1652</ele>
        <time>2021-03-11T14:00:38Z</time>
      </trkpt>
      <trkpt lat="45.0101" lon="6.46523">
        <ele>1654</ele>
        <time>2021-03-11T14:00:51Z</time>
      </trkpt>
      <trkpt lat="45.01019" lon="6.46517">
        <ele>1653</ele>
        <time>2021-03-11T14:01:05Z</time>
      </trkpt>
      <trkpt lat="45.01028" lon="6.46513">
        <ele>1653</ele>
        <time>2021-03-11T14:01:12Z</time>
      </trkpt>
      <trkpt lat="45.01037" lon="6.46508">
        <ele>1651</ele>
        <time>2021-03-11T14:01:17Z</time>
      </trkpt>
      <trkpt lat="45.01045" lon="6.46491">
        <ele>1651</ele>
        <time>2021-03-11T14:01:21Z</time>
      </trkpt>
      <trkpt lat="45.01051" lon="6.46476">
        <ele>1651</ele>
        <time>2021-03-11T14:01:23Z</time>
      </trkpt>
      <trkpt lat="45.01063" lon="6.46481">
        <ele>1649</ele>
        <time>2021-03-11T14:01:26Z</time>
      </trkpt>
      <trkpt lat="45.01068" lon="6.46491">
        <ele>1649</ele>
        <time>2021-03-11T14:01:30Z</time>
      </trkpt>
      <trkpt lat="45.01073" lon="6.46504">
        <ele>1640</ele>
        <time>2021-03-11T14:01:37Z</time>
      </trkpt>
      <trkpt lat="45.01079" lon="6.46517">
        <ele>1640</ele>
        <time>2021-03-11T14:01:43Z</time>
      </trkpt>
      <trkpt lat="45.01086" lon="6.46528">
        <ele>1640</ele>
        <time>2021-03-11T14:01:48Z</time>
      </trkpt>
      <trkpt lat="45.01093" lon="6.46539">
        <ele>1640</ele>
        <time>2021-03-11T14:01:54Z</time>
      </trkpt>
      <trkpt lat="45.01097" lon="6.46554">
        <ele>1640</ele>
        <time>2021-03-11T14:01:59Z</time>
      </trkpt>
      <trkpt lat="45.01103" lon="6.46567">
        <ele>1636</ele>
        <time>2021-03-11T14:02:12Z</time>
      </trkpt>
      <trkpt lat="45.011" lon="6.46568">
        <ele>1637</ele>
        <time>2021-03-11T14:02:26Z</time>
      </trkpt>
    </trkseg>
  </trk>
</gpx>